<?xml version="1.0" encoding="UTF-8" standalone="no" ?>
<gpx xmlns="http://www.topografix.com/GPX/1/1" xmlns:xsi="http://www.w3.org/2001/XMLSchema-instance" xsi:schemaLocation="http://www.topografix.com/GPX/1/1 http://www.topografix.com/GPX/1/1/gpx.xsd" version="1.1" creator="VisuGPX - https://www.visugpx.com">
  <metadata>
    <name>CoteBelle &amp; Arpellin, Faces Nord</name>
    <desc><![CDATA[Laus Cervières Queyras 24/02/2014]]></desc>
  </metadata>
  <trk>
    <name><![CDATA[2014-02-24 08:37]]></name>
    <desc><![CDATA[<h1>OruxMaps</h1><br /><hr align="center" width="480" style="height: 2px; width: 517px"/><h2>Nom: 2014-02-24 08:37</h2><br /><p>Temps de départ: 02/24/2014 08:40</p><p>Temps d'arrivée: 02/24/2014 15:48</p><p>Distance: 13,7 km (07:08)</p><p>Temps déplacement: 03:03</p><p>Vitesse moyenne: 1,9 km/h</p><p>Vitesse moyenne: 4,5 km/h</p><p>Vitess Max.: 34,8 km/h</p><p>Altitude minimale: 1721 m</p><p>Altitude maximale: 2845 m</p><p>Vitesse d'élévation: 279,8 m/h</p><p>Vitesse de descente: -750,9 m/h</p><p>Gain Altitude: 1408 m</p><p>Perte Altitude: -1427 m</p><p>Temps d'élévation: 05:02</p><p>Temps de descente: 01:54</p><hr align="center" width="480" style="height: 2px; width: 517px"/>]]></desc>
    <trkseg>
      <trkpt lat="44.85486" lon="6.72743">
        <ele>1750.44</ele>
        <time>2014-02-24T07:40:25Z</time>
      </trkpt>
      <trkpt lat="44.85479" lon="6.72767">
        <ele>1735.3</ele>
        <time>2014-02-24T07:40:37Z</time>
      </trkpt>
      <trkpt lat="44.85466" lon="6.72787">
        <ele>1740.16</ele>
        <time>2014-02-24T07:40:52Z</time>
      </trkpt>
      <trkpt lat="44.85452" lon="6.72805">
        <ele>1740.53</ele>
        <time>2014-02-24T07:41:06Z</time>
      </trkpt>
      <trkpt lat="44.85438" lon="6.72822">
        <ele>1741.42</ele>
        <time>2014-02-24T07:41:22Z</time>
      </trkpt>
      <trkpt lat="44.85424" lon="6.72839">
        <ele>1738.69</ele>
        <time>2014-02-24T07:41:41Z</time>
      </trkpt>
      <trkpt lat="44.85411" lon="6.72856">
        <ele>1737.35</ele>
        <time>2014-02-24T07:42:01Z</time>
      </trkpt>
      <trkpt lat="44.85397" lon="6.72874">
        <ele>1735.71</ele>
        <time>2014-02-24T07:42:18Z</time>
      </trkpt>
      <trkpt lat="44.85381" lon="6.72887">
        <ele>1737.6</ele>
        <time>2014-02-24T07:42:35Z</time>
      </trkpt>
      <trkpt lat="44.85366" lon="6.72903">
        <ele>1736.27</ele>
        <time>2014-02-24T07:42:53Z</time>
      </trkpt>
      <trkpt lat="44.85353" lon="6.72922">
        <ele>1729.47</ele>
        <time>2014-02-24T07:43:10Z</time>
      </trkpt>
      <trkpt lat="44.85339" lon="6.7294">
        <ele>1727.27</ele>
        <time>2014-02-24T07:43:25Z</time>
      </trkpt>
      <trkpt lat="44.85327" lon="6.72959">
        <ele>1728.31</ele>
        <time>2014-02-24T07:43:41Z</time>
      </trkpt>
      <trkpt lat="44.85315" lon="6.72978">
        <ele>1727.55</ele>
        <time>2014-02-24T07:44:01Z</time>
      </trkpt>
      <trkpt lat="44.85305" lon="6.72999">
        <ele>1721.57</ele>
        <time>2014-02-24T07:44:18Z</time>
      </trkpt>
      <trkpt lat="44.85293" lon="6.73018">
        <ele>1721.36</ele>
        <time>2014-02-24T07:44:37Z</time>
      </trkpt>
      <trkpt lat="44.85278" lon="6.73035">
        <ele>1725.56</ele>
        <time>2014-02-24T07:44:59Z</time>
      </trkpt>
      <trkpt lat="44.85264" lon="6.73052">
        <ele>1730.96</ele>
        <time>2014-02-24T07:45:26Z</time>
      </trkpt>
      <trkpt lat="44.85252" lon="6.73072">
        <ele>1732.94</ele>
        <time>2014-02-24T07:45:43Z</time>
      </trkpt>
      <trkpt lat="44.85239" lon="6.7309">
        <ele>1733.05</ele>
        <time>2014-02-24T07:46:01Z</time>
      </trkpt>
      <trkpt lat="44.85225" lon="6.73107">
        <ele>1730.47</ele>
        <time>2014-02-24T07:46:23Z</time>
      </trkpt>
      <trkpt lat="44.85212" lon="6.73126">
        <ele>1731.11</ele>
        <time>2014-02-24T07:46:42Z</time>
      </trkpt>
      <trkpt lat="44.85199" lon="6.73144">
        <ele>1734.91</ele>
        <time>2014-02-24T07:46:59Z</time>
      </trkpt>
      <trkpt lat="44.85184" lon="6.73159">
        <ele>1738.38</ele>
        <time>2014-02-24T07:47:19Z</time>
      </trkpt>
      <trkpt lat="44.85168" lon="6.73171">
        <ele>1746.41</ele>
        <time>2014-02-24T07:47:37Z</time>
      </trkpt>
      <trkpt lat="44.85151" lon="6.73182">
        <ele>1749.99</ele>
        <time>2014-02-24T07:47:56Z</time>
      </trkpt>
      <trkpt lat="44.85135" lon="6.73195">
        <ele>1753.57</ele>
        <time>2014-02-24T07:48:15Z</time>
      </trkpt>
      <trkpt lat="44.85117" lon="6.73204">
        <ele>1761.44</ele>
        <time>2014-02-24T07:48:35Z</time>
      </trkpt>
      <trkpt lat="44.85102" lon="6.7322">
        <ele>1756.04</ele>
        <time>2014-02-24T07:49:00Z</time>
      </trkpt>
      <trkpt lat="44.85089" lon="6.73238">
        <ele>1755.38</ele>
        <time>2014-02-24T07:49:20Z</time>
      </trkpt>
      <trkpt lat="44.85076" lon="6.73258">
        <ele>1764.31</ele>
        <time>2014-02-24T07:49:40Z</time>
      </trkpt>
      <trkpt lat="44.85066" lon="6.73279">
        <ele>1765.29</ele>
        <time>2014-02-24T07:50:04Z</time>
      </trkpt>
      <trkpt lat="44.85054" lon="6.73298">
        <ele>1769.21</ele>
        <time>2014-02-24T07:50:25Z</time>
      </trkpt>
      <trkpt lat="44.85042" lon="6.73319">
        <ele>1770.44</ele>
        <time>2014-02-24T07:50:46Z</time>
      </trkpt>
      <trkpt lat="44.85032" lon="6.73341">
        <ele>1771.94</ele>
        <time>2014-02-24T07:51:07Z</time>
      </trkpt>
      <trkpt lat="44.85026" lon="6.73366">
        <ele>1776.38</ele>
        <time>2014-02-24T07:51:27Z</time>
      </trkpt>
      <trkpt lat="44.85021" lon="6.7339">
        <ele>1778.49</ele>
        <time>2014-02-24T07:51:50Z</time>
      </trkpt>
      <trkpt lat="44.85017" lon="6.73416">
        <ele>1785.16</ele>
        <time>2014-02-24T07:52:08Z</time>
      </trkpt>
      <trkpt lat="44.85016" lon="6.73442">
        <ele>1794.14</ele>
        <time>2014-02-24T07:52:37Z</time>
      </trkpt>
      <trkpt lat="44.85015" lon="6.73467">
        <ele>1791.71</ele>
        <time>2014-02-24T07:53:02Z</time>
      </trkpt>
      <trkpt lat="44.8501" lon="6.73492">
        <ele>1794.25</ele>
        <time>2014-02-24T07:53:19Z</time>
      </trkpt>
      <trkpt lat="44.85" lon="6.73514">
        <ele>1797.3</ele>
        <time>2014-02-24T07:53:47Z</time>
      </trkpt>
      <trkpt lat="44.84991" lon="6.73536">
        <ele>1797.32</ele>
        <time>2014-02-24T07:54:08Z</time>
      </trkpt>
      <trkpt lat="44.84982" lon="6.73558">
        <ele>1797.94</ele>
        <time>2014-02-24T07:54:36Z</time>
      </trkpt>
      <trkpt lat="44.84972" lon="6.73579">
        <ele>1806.39</ele>
        <time>2014-02-24T07:54:53Z</time>
      </trkpt>
      <trkpt lat="44.84961" lon="6.73601">
        <ele>1815.44</ele>
        <time>2014-02-24T07:55:13Z</time>
      </trkpt>
      <trkpt lat="44.84954" lon="6.73625">
        <ele>1808.78</ele>
        <time>2014-02-24T07:55:34Z</time>
      </trkpt>
      <trkpt lat="44.84948" lon="6.73649">
        <ele>1810.58</ele>
        <time>2014-02-24T07:55:57Z</time>
      </trkpt>
      <trkpt lat="44.84939" lon="6.73672">
        <ele>1815.06</ele>
        <time>2014-02-24T07:56:19Z</time>
      </trkpt>
      <trkpt lat="44.84928" lon="6.73694">
        <ele>1823.54</ele>
        <time>2014-02-24T07:56:46Z</time>
      </trkpt>
      <trkpt lat="44.84918" lon="6.73717">
        <ele>1828.25</ele>
        <time>2014-02-24T07:57:06Z</time>
      </trkpt>
      <trkpt lat="44.84911" lon="6.7374">
        <ele>1826.73</ele>
        <time>2014-02-24T07:57:25Z</time>
      </trkpt>
      <trkpt lat="44.84901" lon="6.73763">
        <ele>1832.32</ele>
        <time>2014-02-24T07:57:40Z</time>
      </trkpt>
      <trkpt lat="44.84891" lon="6.73794">
        <ele>1835.91</ele>
        <time>2014-02-24T07:58:17Z</time>
      </trkpt>
      <trkpt lat="44.84882" lon="6.73815">
        <ele>1839.26</ele>
        <time>2014-02-24T07:58:34Z</time>
      </trkpt>
      <trkpt lat="44.84874" lon="6.73839">
        <ele>1838.71</ele>
        <time>2014-02-24T07:58:55Z</time>
      </trkpt>
      <trkpt lat="44.84866" lon="6.73862">
        <ele>1836.29</ele>
        <time>2014-02-24T07:59:18Z</time>
      </trkpt>
      <trkpt lat="44.84856" lon="6.73884">
        <ele>1841.52</ele>
        <time>2014-02-24T07:59:46Z</time>
      </trkpt>
      <trkpt lat="44.8485" lon="6.73908">
        <ele>1840.42</ele>
        <time>2014-02-24T08:00:04Z</time>
      </trkpt>
      <trkpt lat="44.84842" lon="6.73932">
        <ele>1838.23</ele>
        <time>2014-02-24T08:00:28Z</time>
      </trkpt>
      <trkpt lat="44.84834" lon="6.73955">
        <ele>1840.17</ele>
        <time>2014-02-24T08:00:44Z</time>
      </trkpt>
      <trkpt lat="44.84827" lon="6.7398">
        <ele>1840.51</ele>
        <time>2014-02-24T08:01:07Z</time>
      </trkpt>
      <trkpt lat="44.84816" lon="6.74002">
        <ele>1846.92</ele>
        <time>2014-02-24T08:01:24Z</time>
      </trkpt>
      <trkpt lat="44.84805" lon="6.74023">
        <ele>1843.52</ele>
        <time>2014-02-24T08:01:51Z</time>
      </trkpt>
      <trkpt lat="44.84792" lon="6.74041">
        <ele>1851.18</ele>
        <time>2014-02-24T08:02:08Z</time>
      </trkpt>
      <trkpt lat="44.84778" lon="6.74059">
        <ele>1850</ele>
        <time>2014-02-24T08:02:28Z</time>
      </trkpt>
      <trkpt lat="44.84766" lon="6.74077">
        <ele>1847.21</ele>
        <time>2014-02-24T08:02:51Z</time>
      </trkpt>
      <trkpt lat="44.84752" lon="6.74096">
        <ele>1845.71</ele>
        <time>2014-02-24T08:03:13Z</time>
      </trkpt>
      <trkpt lat="44.8474" lon="6.74115">
        <ele>1847.4</ele>
        <time>2014-02-24T08:03:41Z</time>
      </trkpt>
      <trkpt lat="44.84727" lon="6.74133">
        <ele>1853.47</ele>
        <time>2014-02-24T08:04:02Z</time>
      </trkpt>
      <trkpt lat="44.84715" lon="6.74153">
        <ele>1856.19</ele>
        <time>2014-02-24T08:04:27Z</time>
      </trkpt>
      <trkpt lat="44.84705" lon="6.74177">
        <ele>1858.88</ele>
        <time>2014-02-24T08:04:49Z</time>
      </trkpt>
      <trkpt lat="44.84697" lon="6.74201">
        <ele>1862</ele>
        <time>2014-02-24T08:05:07Z</time>
      </trkpt>
      <trkpt lat="44.84691" lon="6.74225">
        <ele>1864.21</ele>
        <time>2014-02-24T08:05:26Z</time>
      </trkpt>
      <trkpt lat="44.84684" lon="6.74249">
        <ele>1866.83</ele>
        <time>2014-02-24T08:05:43Z</time>
      </trkpt>
      <trkpt lat="44.84678" lon="6.74274">
        <ele>1868.78</ele>
        <time>2014-02-24T08:06:06Z</time>
      </trkpt>
      <trkpt lat="44.84671" lon="6.74297">
        <ele>1875.85</ele>
        <time>2014-02-24T08:06:31Z</time>
      </trkpt>
      <trkpt lat="44.84666" lon="6.74322">
        <ele>1876.83</ele>
        <time>2014-02-24T08:06:49Z</time>
      </trkpt>
      <trkpt lat="44.84661" lon="6.74347">
        <ele>1874.71</ele>
        <time>2014-02-24T08:07:07Z</time>
      </trkpt>
      <trkpt lat="44.84652" lon="6.74369">
        <ele>1881.61</ele>
        <time>2014-02-24T08:07:38Z</time>
      </trkpt>
      <trkpt lat="44.8464" lon="6.74392">
        <ele>1882.36</ele>
        <time>2014-02-24T08:07:58Z</time>
      </trkpt>
      <trkpt lat="44.84627" lon="6.74411">
        <ele>1877.64</ele>
        <time>2014-02-24T08:08:16Z</time>
      </trkpt>
      <trkpt lat="44.84614" lon="6.74428">
        <ele>1881.31</ele>
        <time>2014-02-24T08:08:41Z</time>
      </trkpt>
      <trkpt lat="44.84599" lon="6.74444">
        <ele>1885.26</ele>
        <time>2014-02-24T08:09:05Z</time>
      </trkpt>
      <trkpt lat="44.84584" lon="6.74462">
        <ele>1888.44</ele>
        <time>2014-02-24T08:09:32Z</time>
      </trkpt>
      <trkpt lat="44.84572" lon="6.74481">
        <ele>1888.57</ele>
        <time>2014-02-24T08:09:51Z</time>
      </trkpt>
      <trkpt lat="44.84557" lon="6.74496">
        <ele>1896.51</ele>
        <time>2014-02-24T08:10:18Z</time>
      </trkpt>
      <trkpt lat="44.8454" lon="6.74505">
        <ele>1890.3</ele>
        <time>2014-02-24T08:10:35Z</time>
      </trkpt>
      <trkpt lat="44.84522" lon="6.74497">
        <ele>1890.78</ele>
        <time>2014-02-24T08:10:59Z</time>
      </trkpt>
      <trkpt lat="44.84504" lon="6.74496">
        <ele>1873.48</ele>
        <time>2014-02-24T08:11:27Z</time>
      </trkpt>
      <trkpt lat="44.84486" lon="6.74491">
        <ele>1891.2</ele>
        <time>2014-02-24T08:11:51Z</time>
      </trkpt>
      <trkpt lat="44.84468" lon="6.74495">
        <ele>1899.98</ele>
        <time>2014-02-24T08:12:08Z</time>
      </trkpt>
      <trkpt lat="44.8445" lon="6.74497">
        <ele>1906.2</ele>
        <time>2014-02-24T08:12:27Z</time>
      </trkpt>
      <trkpt lat="44.84432" lon="6.74499">
        <ele>1910.88</ele>
        <time>2014-02-24T08:12:47Z</time>
      </trkpt>
      <trkpt lat="44.84414" lon="6.74505">
        <ele>1915.67</ele>
        <time>2014-02-24T08:13:11Z</time>
      </trkpt>
      <trkpt lat="44.84397" lon="6.74511">
        <ele>1915.45</ele>
        <time>2014-02-24T08:13:35Z</time>
      </trkpt>
      <trkpt lat="44.84378" lon="6.74516">
        <ele>1916.59</ele>
        <time>2014-02-24T08:13:56Z</time>
      </trkpt>
      <trkpt lat="44.84362" lon="6.74525">
        <ele>1919.3</ele>
        <time>2014-02-24T08:14:15Z</time>
      </trkpt>
      <trkpt lat="44.84343" lon="6.74531">
        <ele>1918.23</ele>
        <time>2014-02-24T08:14:37Z</time>
      </trkpt>
      <trkpt lat="44.84325" lon="6.74539">
        <ele>1919.63</ele>
        <time>2014-02-24T08:14:59Z</time>
      </trkpt>
      <trkpt lat="44.84307" lon="6.74545">
        <ele>1923.44</ele>
        <time>2014-02-24T08:15:26Z</time>
      </trkpt>
      <trkpt lat="44.84288" lon="6.74549">
        <ele>1924.43</ele>
        <time>2014-02-24T08:15:42Z</time>
      </trkpt>
      <trkpt lat="44.8427" lon="6.74553">
        <ele>1918.87</ele>
        <time>2014-02-24T08:16:01Z</time>
      </trkpt>
      <trkpt lat="44.84253" lon="6.74563">
        <ele>1925.53</ele>
        <time>2014-02-24T08:16:19Z</time>
      </trkpt>
      <trkpt lat="44.84236" lon="6.74572">
        <ele>1925.03</ele>
        <time>2014-02-24T08:16:40Z</time>
      </trkpt>
      <trkpt lat="44.84219" lon="6.74583">
        <ele>1927.41</ele>
        <time>2014-02-24T08:17:01Z</time>
      </trkpt>
      <trkpt lat="44.84202" lon="6.74595">
        <ele>1928.68</ele>
        <time>2014-02-24T08:17:18Z</time>
      </trkpt>
      <trkpt lat="44.84185" lon="6.74607">
        <ele>1934.96</ele>
        <time>2014-02-24T08:17:38Z</time>
      </trkpt>
      <trkpt lat="44.8417" lon="6.74623">
        <ele>1946.53</ele>
        <time>2014-02-24T08:18:02Z</time>
      </trkpt>
      <trkpt lat="44.84156" lon="6.7464">
        <ele>1948.89</ele>
        <time>2014-02-24T08:18:19Z</time>
      </trkpt>
      <trkpt lat="44.84145" lon="6.7466">
        <ele>1938.82</ele>
        <time>2014-02-24T08:18:39Z</time>
      </trkpt>
      <trkpt lat="44.84132" lon="6.7468">
        <ele>1951.46</ele>
        <time>2014-02-24T08:18:54Z</time>
      </trkpt>
      <trkpt lat="44.84116" lon="6.74693">
        <ele>1953.43</ele>
        <time>2014-02-24T08:19:11Z</time>
      </trkpt>
      <trkpt lat="44.84098" lon="6.747">
        <ele>1960.3</ele>
        <time>2014-02-24T08:19:28Z</time>
      </trkpt>
      <trkpt lat="44.84079" lon="6.74701">
        <ele>1960.71</ele>
        <time>2014-02-24T08:19:47Z</time>
      </trkpt>
      <trkpt lat="44.84061" lon="6.74701">
        <ele>1960.48</ele>
        <time>2014-02-24T08:20:09Z</time>
      </trkpt>
      <trkpt lat="44.84042" lon="6.74702">
        <ele>1963.25</ele>
        <time>2014-02-24T08:20:27Z</time>
      </trkpt>
      <trkpt lat="44.84024" lon="6.74705">
        <ele>1963.39</ele>
        <time>2014-02-24T08:20:46Z</time>
      </trkpt>
      <trkpt lat="44.84007" lon="6.74712">
        <ele>1964.56</ele>
        <time>2014-02-24T08:21:05Z</time>
      </trkpt>
      <trkpt lat="44.8399" lon="6.74722">
        <ele>1963.74</ele>
        <time>2014-02-24T08:21:24Z</time>
      </trkpt>
      <trkpt lat="44.83974" lon="6.74736">
        <ele>1966.53</ele>
        <time>2014-02-24T08:21:43Z</time>
      </trkpt>
      <trkpt lat="44.83956" lon="6.74742">
        <ele>1967.32</ele>
        <time>2014-02-24T08:22:03Z</time>
      </trkpt>
      <trkpt lat="44.83938" lon="6.74746">
        <ele>1971.83</ele>
        <time>2014-02-24T08:22:22Z</time>
      </trkpt>
      <trkpt lat="44.83919" lon="6.7475">
        <ele>1976.17</ele>
        <time>2014-02-24T08:22:40Z</time>
      </trkpt>
      <trkpt lat="44.83903" lon="6.7476">
        <ele>1981.35</ele>
        <time>2014-02-24T08:22:58Z</time>
      </trkpt>
      <trkpt lat="44.83885" lon="6.74769">
        <ele>1985.36</ele>
        <time>2014-02-24T08:23:17Z</time>
      </trkpt>
      <trkpt lat="44.83867" lon="6.74775">
        <ele>1990.25</ele>
        <time>2014-02-24T08:23:35Z</time>
      </trkpt>
      <trkpt lat="44.83849" lon="6.74782">
        <ele>1987.98</ele>
        <time>2014-02-24T08:23:53Z</time>
      </trkpt>
      <trkpt lat="44.83832" lon="6.74789">
        <ele>1991.56</ele>
        <time>2014-02-24T08:24:13Z</time>
      </trkpt>
      <trkpt lat="44.83815" lon="6.74798">
        <ele>1996.88</ele>
        <time>2014-02-24T08:24:30Z</time>
      </trkpt>
      <trkpt lat="44.83797" lon="6.74809">
        <ele>1997.99</ele>
        <time>2014-02-24T08:24:49Z</time>
      </trkpt>
      <trkpt lat="44.83782" lon="6.74823">
        <ele>1996.17</ele>
        <time>2014-02-24T08:25:05Z</time>
      </trkpt>
      <trkpt lat="44.83766" lon="6.74835">
        <ele>1993.55</ele>
        <time>2014-02-24T08:30:16Z</time>
      </trkpt>
      <trkpt lat="44.83757" lon="6.74857">
        <ele>1993.12</ele>
        <time>2014-02-24T08:31:30Z</time>
      </trkpt>
      <trkpt lat="44.83745" lon="6.74876">
        <ele>1993.38</ele>
        <time>2014-02-24T08:31:47Z</time>
      </trkpt>
      <trkpt lat="44.83732" lon="6.74895">
        <ele>1996.97</ele>
        <time>2014-02-24T08:32:06Z</time>
      </trkpt>
      <trkpt lat="44.83722" lon="6.74917">
        <ele>2000.26</ele>
        <time>2014-02-24T08:32:25Z</time>
      </trkpt>
      <trkpt lat="44.83712" lon="6.74938">
        <ele>2001.11</ele>
        <time>2014-02-24T08:32:47Z</time>
      </trkpt>
      <trkpt lat="44.837" lon="6.74959">
        <ele>2001.54</ele>
        <time>2014-02-24T08:33:04Z</time>
      </trkpt>
      <trkpt lat="44.8369" lon="6.7498">
        <ele>2002.32</ele>
        <time>2014-02-24T08:33:24Z</time>
      </trkpt>
      <trkpt lat="44.83681" lon="6.75002">
        <ele>2003.93</ele>
        <time>2014-02-24T08:33:46Z</time>
      </trkpt>
      <trkpt lat="44.8367" lon="6.75024">
        <ele>2004.94</ele>
        <time>2014-02-24T08:34:06Z</time>
      </trkpt>
      <trkpt lat="44.83658" lon="6.75044">
        <ele>2007.69</ele>
        <time>2014-02-24T08:34:28Z</time>
      </trkpt>
      <trkpt lat="44.83649" lon="6.75066">
        <ele>2004.43</ele>
        <time>2014-02-24T08:34:47Z</time>
      </trkpt>
      <trkpt lat="44.83632" lon="6.75076">
        <ele>2009.39</ele>
        <time>2014-02-24T08:35:14Z</time>
      </trkpt>
      <trkpt lat="44.83614" lon="6.75081">
        <ele>2011.21</ele>
        <time>2014-02-24T08:35:34Z</time>
      </trkpt>
      <trkpt lat="44.83596" lon="6.75087">
        <ele>2014.31</ele>
        <time>2014-02-24T08:35:55Z</time>
      </trkpt>
      <trkpt lat="44.83579" lon="6.75097">
        <ele>2017.69</ele>
        <time>2014-02-24T08:36:23Z</time>
      </trkpt>
      <trkpt lat="44.83564" lon="6.75113">
        <ele>2022.44</ele>
        <time>2014-02-24T08:36:55Z</time>
      </trkpt>
      <trkpt lat="44.83549" lon="6.75129">
        <ele>2024.29</ele>
        <time>2014-02-24T08:37:18Z</time>
      </trkpt>
      <trkpt lat="44.83533" lon="6.75142">
        <ele>2028.44</ele>
        <time>2014-02-24T08:37:47Z</time>
      </trkpt>
      <trkpt lat="44.8352" lon="6.75159">
        <ele>2026.56</ele>
        <time>2014-02-24T08:38:08Z</time>
      </trkpt>
      <trkpt lat="44.83506" lon="6.75176">
        <ele>2025.59</ele>
        <time>2014-02-24T08:38:26Z</time>
      </trkpt>
      <trkpt lat="44.83484" lon="6.75197">
        <ele>2028.45</ele>
        <time>2014-02-24T08:39:01Z</time>
      </trkpt>
      <trkpt lat="44.83468" lon="6.7521">
        <ele>2031.16</ele>
        <time>2014-02-24T08:39:23Z</time>
      </trkpt>
      <trkpt lat="44.83456" lon="6.75229">
        <ele>2025.46</ele>
        <time>2014-02-24T08:39:46Z</time>
      </trkpt>
      <trkpt lat="44.83445" lon="6.7525">
        <ele>2034.49</ele>
        <time>2014-02-24T08:40:07Z</time>
      </trkpt>
      <trkpt lat="44.83434" lon="6.75272">
        <ele>2036.67</ele>
        <time>2014-02-24T08:40:31Z</time>
      </trkpt>
      <trkpt lat="44.83425" lon="6.75294">
        <ele>2038.66</ele>
        <time>2014-02-24T08:40:54Z</time>
      </trkpt>
      <trkpt lat="44.83415" lon="6.75316">
        <ele>2038.01</ele>
        <time>2014-02-24T08:41:19Z</time>
      </trkpt>
      <trkpt lat="44.83401" lon="6.75333">
        <ele>2042.05</ele>
        <time>2014-02-24T08:41:36Z</time>
      </trkpt>
      <trkpt lat="44.83382" lon="6.75333">
        <ele>2051.27</ele>
        <time>2014-02-24T08:42:02Z</time>
      </trkpt>
      <trkpt lat="44.83364" lon="6.75326">
        <ele>2049.9</ele>
        <time>2014-02-24T08:42:21Z</time>
      </trkpt>
      <trkpt lat="44.83348" lon="6.75315">
        <ele>2050.94</ele>
        <time>2014-02-24T08:42:50Z</time>
      </trkpt>
      <trkpt lat="44.83336" lon="6.75295">
        <ele>2050.5</ele>
        <time>2014-02-24T08:46:12Z</time>
      </trkpt>
      <trkpt lat="44.83318" lon="6.75288">
        <ele>2052.08</ele>
        <time>2014-02-24T08:46:32Z</time>
      </trkpt>
      <trkpt lat="44.833" lon="6.75279">
        <ele>2053.27</ele>
        <time>2014-02-24T08:46:51Z</time>
      </trkpt>
      <trkpt lat="44.83282" lon="6.75282">
        <ele>2051.84</ele>
        <time>2014-02-24T08:47:35Z</time>
      </trkpt>
      <trkpt lat="44.83264" lon="6.75285">
        <ele>2055.92</ele>
        <time>2014-02-24T08:47:56Z</time>
      </trkpt>
      <trkpt lat="44.83245" lon="6.75281">
        <ele>2057.59</ele>
        <time>2014-02-24T08:48:17Z</time>
      </trkpt>
      <trkpt lat="44.83227" lon="6.75279">
        <ele>2060.97</ele>
        <time>2014-02-24T08:48:37Z</time>
      </trkpt>
      <trkpt lat="44.8321" lon="6.7527">
        <ele>2069.68</ele>
        <time>2014-02-24T08:49:07Z</time>
      </trkpt>
      <trkpt lat="44.83193" lon="6.75259">
        <ele>2075.63</ele>
        <time>2014-02-24T08:49:45Z</time>
      </trkpt>
      <trkpt lat="44.83178" lon="6.75245">
        <ele>2077.85</ele>
        <time>2014-02-24T08:50:16Z</time>
      </trkpt>
      <trkpt lat="44.83163" lon="6.75231">
        <ele>2081.88</ele>
        <time>2014-02-24T08:50:49Z</time>
      </trkpt>
      <trkpt lat="44.83146" lon="6.75218">
        <ele>2085.09</ele>
        <time>2014-02-24T08:51:17Z</time>
      </trkpt>
      <trkpt lat="44.83129" lon="6.75212">
        <ele>2094.32</ele>
        <time>2014-02-24T08:51:54Z</time>
      </trkpt>
      <trkpt lat="44.8311" lon="6.75208">
        <ele>2102.19</ele>
        <time>2014-02-24T08:52:33Z</time>
      </trkpt>
      <trkpt lat="44.83092" lon="6.75205">
        <ele>2106.59</ele>
        <time>2014-02-24T08:53:00Z</time>
      </trkpt>
      <trkpt lat="44.83074" lon="6.75207">
        <ele>2105.34</ele>
        <time>2014-02-24T08:53:39Z</time>
      </trkpt>
      <trkpt lat="44.83056" lon="6.75208">
        <ele>2111.02</ele>
        <time>2014-02-24T08:54:15Z</time>
      </trkpt>
      <trkpt lat="44.83037" lon="6.75208">
        <ele>2108.7</ele>
        <time>2014-02-24T08:54:47Z</time>
      </trkpt>
      <trkpt lat="44.83019" lon="6.75208">
        <ele>2108.5</ele>
        <time>2014-02-24T08:55:15Z</time>
      </trkpt>
      <trkpt lat="44.83" lon="6.75208">
        <ele>2113.69</ele>
        <time>2014-02-24T08:55:43Z</time>
      </trkpt>
      <trkpt lat="44.82982" lon="6.75209">
        <ele>2117.78</ele>
        <time>2014-02-24T08:56:14Z</time>
      </trkpt>
      <trkpt lat="44.82965" lon="6.75218">
        <ele>2123.13</ele>
        <time>2014-02-24T08:56:41Z</time>
      </trkpt>
      <trkpt lat="44.82948" lon="6.75226">
        <ele>2130.94</ele>
        <time>2014-02-24T08:57:30Z</time>
      </trkpt>
      <trkpt lat="44.8293" lon="6.75233">
        <ele>2137.02</ele>
        <time>2014-02-24T08:57:55Z</time>
      </trkpt>
      <trkpt lat="44.82915" lon="6.75247">
        <ele>2144.53</ele>
        <time>2014-02-24T08:58:21Z</time>
      </trkpt>
      <trkpt lat="44.82901" lon="6.75264">
        <ele>2152</ele>
        <time>2014-02-24T08:58:49Z</time>
      </trkpt>
      <trkpt lat="44.82891" lon="6.75285">
        <ele>2157.41</ele>
        <time>2014-02-24T08:59:26Z</time>
      </trkpt>
      <trkpt lat="44.82877" lon="6.75301">
        <ele>2160.68</ele>
        <time>2014-02-24T08:59:55Z</time>
      </trkpt>
      <trkpt lat="44.82864" lon="6.75319">
        <ele>2168.01</ele>
        <time>2014-02-24T09:00:36Z</time>
      </trkpt>
      <trkpt lat="44.82849" lon="6.75334">
        <ele>2171.52</ele>
        <time>2014-02-24T09:01:08Z</time>
      </trkpt>
      <trkpt lat="44.82832" lon="6.75344">
        <ele>2171.03</ele>
        <time>2014-02-24T09:01:33Z</time>
      </trkpt>
      <trkpt lat="44.82814" lon="6.75346">
        <ele>2175.69</ele>
        <time>2014-02-24T09:01:59Z</time>
      </trkpt>
      <trkpt lat="44.82799" lon="6.75362">
        <ele>2187.19</ele>
        <time>2014-02-24T09:02:30Z</time>
      </trkpt>
      <trkpt lat="44.82781" lon="6.75367">
        <ele>2189.42</ele>
        <time>2014-02-24T09:03:04Z</time>
      </trkpt>
      <trkpt lat="44.82763" lon="6.75374">
        <ele>2194.69</ele>
        <time>2014-02-24T09:03:41Z</time>
      </trkpt>
      <trkpt lat="44.82748" lon="6.75387">
        <ele>2198.22</ele>
        <time>2014-02-24T09:04:15Z</time>
      </trkpt>
      <trkpt lat="44.82733" lon="6.75402">
        <ele>2203.44</ele>
        <time>2014-02-24T09:04:57Z</time>
      </trkpt>
      <trkpt lat="44.82718" lon="6.75417">
        <ele>2208.36</ele>
        <time>2014-02-24T09:05:31Z</time>
      </trkpt>
      <trkpt lat="44.82706" lon="6.75435">
        <ele>2222.42</ele>
        <time>2014-02-24T09:06:41Z</time>
      </trkpt>
      <trkpt lat="44.8269" lon="6.75447">
        <ele>2229.54</ele>
        <time>2014-02-24T09:07:28Z</time>
      </trkpt>
      <trkpt lat="44.82686" lon="6.75472">
        <ele>2238.26</ele>
        <time>2014-02-24T09:13:21Z</time>
      </trkpt>
      <trkpt lat="44.82682" lon="6.75497">
        <ele>2243.19</ele>
        <time>2014-02-24T09:14:01Z</time>
      </trkpt>
      <trkpt lat="44.82686" lon="6.75522">
        <ele>2251.42</ele>
        <time>2014-02-24T09:14:31Z</time>
      </trkpt>
      <trkpt lat="44.82672" lon="6.75539">
        <ele>2255.13</ele>
        <time>2014-02-24T09:15:17Z</time>
      </trkpt>
      <trkpt lat="44.82654" lon="6.75543">
        <ele>2257.17</ele>
        <time>2014-02-24T09:15:57Z</time>
      </trkpt>
      <trkpt lat="44.82636" lon="6.75534">
        <ele>2261.2</ele>
        <time>2014-02-24T09:16:14Z</time>
      </trkpt>
      <trkpt lat="44.82624" lon="6.75514">
        <ele>2261.57</ele>
        <time>2014-02-24T09:16:27Z</time>
      </trkpt>
      <trkpt lat="44.82624" lon="6.75488">
        <ele>2267.37</ele>
        <time>2014-02-24T09:16:51Z</time>
      </trkpt>
      <trkpt lat="44.82612" lon="6.75468">
        <ele>2268.3</ele>
        <time>2014-02-24T09:17:15Z</time>
      </trkpt>
      <trkpt lat="44.82596" lon="6.75457">
        <ele>2267.18</ele>
        <time>2014-02-24T09:17:28Z</time>
      </trkpt>
      <trkpt lat="44.82587" lon="6.75435">
        <ele>2270.9</ele>
        <time>2014-02-24T09:17:50Z</time>
      </trkpt>
      <trkpt lat="44.82574" lon="6.75416">
        <ele>2269.06</ele>
        <time>2014-02-24T09:18:06Z</time>
      </trkpt>
      <trkpt lat="44.8256" lon="6.75398">
        <ele>2275.22</ele>
        <time>2014-02-24T09:18:29Z</time>
      </trkpt>
      <trkpt lat="44.82563" lon="6.75373">
        <ele>2273.57</ele>
        <time>2014-02-24T09:18:53Z</time>
      </trkpt>
      <trkpt lat="44.82558" lon="6.75348">
        <ele>2277.38</ele>
        <time>2014-02-24T09:19:22Z</time>
      </trkpt>
      <trkpt lat="44.82549" lon="6.75326">
        <ele>2280.42</ele>
        <time>2014-02-24T09:19:44Z</time>
      </trkpt>
      <trkpt lat="44.82543" lon="6.75302">
        <ele>2280.06</ele>
        <time>2014-02-24T09:20:15Z</time>
      </trkpt>
      <trkpt lat="44.8253" lon="6.75284">
        <ele>2277.31</ele>
        <time>2014-02-24T09:20:52Z</time>
      </trkpt>
      <trkpt lat="44.82512" lon="6.75284">
        <ele>2283.04</ele>
        <time>2014-02-24T09:21:25Z</time>
      </trkpt>
      <trkpt lat="44.82494" lon="6.75295">
        <ele>2285.23</ele>
        <time>2014-02-24T09:21:51Z</time>
      </trkpt>
      <trkpt lat="44.82476" lon="6.75294">
        <ele>2284.39</ele>
        <time>2014-02-24T09:22:05Z</time>
      </trkpt>
      <trkpt lat="44.82458" lon="6.75287">
        <ele>2284.44</ele>
        <time>2014-02-24T09:31:17Z</time>
      </trkpt>
      <trkpt lat="44.8244" lon="6.75282">
        <ele>2286.37</ele>
        <time>2014-02-24T09:31:39Z</time>
      </trkpt>
      <trkpt lat="44.82423" lon="6.75277">
        <ele>2290.54</ele>
        <time>2014-02-24T09:32:04Z</time>
      </trkpt>
      <trkpt lat="44.82405" lon="6.75268">
        <ele>2295.78</ele>
        <time>2014-02-24T09:33:10Z</time>
      </trkpt>
      <trkpt lat="44.82394" lon="6.75248">
        <ele>2308.67</ele>
        <time>2014-02-24T09:34:04Z</time>
      </trkpt>
      <trkpt lat="44.82381" lon="6.75266">
        <ele>2305.69</ele>
        <time>2014-02-24T09:34:35Z</time>
      </trkpt>
      <trkpt lat="44.82368" lon="6.75249">
        <ele>2318.12</ele>
        <time>2014-02-24T09:35:48Z</time>
      </trkpt>
      <trkpt lat="44.82352" lon="6.75234">
        <ele>2319.37</ele>
        <time>2014-02-24T09:36:14Z</time>
      </trkpt>
      <trkpt lat="44.82337" lon="6.75221">
        <ele>2318.43</ele>
        <time>2014-02-24T09:36:41Z</time>
      </trkpt>
      <trkpt lat="44.82321" lon="6.75208">
        <ele>2320.88</ele>
        <time>2014-02-24T09:37:13Z</time>
      </trkpt>
      <trkpt lat="44.82304" lon="6.75196">
        <ele>2323.41</ele>
        <time>2014-02-24T09:37:36Z</time>
      </trkpt>
      <trkpt lat="44.82288" lon="6.75184">
        <ele>2326.07</ele>
        <time>2014-02-24T09:38:01Z</time>
      </trkpt>
      <trkpt lat="44.82274" lon="6.75168">
        <ele>2328.35</ele>
        <time>2014-02-24T09:38:30Z</time>
      </trkpt>
      <trkpt lat="44.82258" lon="6.75156">
        <ele>2329.32</ele>
        <time>2014-02-24T09:38:59Z</time>
      </trkpt>
      <trkpt lat="44.82243" lon="6.75141">
        <ele>2332.43</ele>
        <time>2014-02-24T09:39:29Z</time>
      </trkpt>
      <trkpt lat="44.82229" lon="6.75126">
        <ele>2336.44</ele>
        <time>2014-02-24T09:39:54Z</time>
      </trkpt>
      <trkpt lat="44.82214" lon="6.75112">
        <ele>2337.79</ele>
        <time>2014-02-24T09:40:27Z</time>
      </trkpt>
      <trkpt lat="44.82199" lon="6.75096">
        <ele>2340.45</ele>
        <time>2014-02-24T09:40:56Z</time>
      </trkpt>
      <trkpt lat="44.82184" lon="6.7508">
        <ele>2340.26</ele>
        <time>2014-02-24T09:41:28Z</time>
      </trkpt>
      <trkpt lat="44.8217" lon="6.75064">
        <ele>2344.99</ele>
        <time>2014-02-24T09:42:02Z</time>
      </trkpt>
      <trkpt lat="44.82156" lon="6.75049">
        <ele>2347.44</ele>
        <time>2014-02-24T09:42:29Z</time>
      </trkpt>
      <trkpt lat="44.82142" lon="6.75032">
        <ele>2351.45</ele>
        <time>2014-02-24T09:42:58Z</time>
      </trkpt>
      <trkpt lat="44.82127" lon="6.75018">
        <ele>2355.12</ele>
        <time>2014-02-24T09:43:28Z</time>
      </trkpt>
      <trkpt lat="44.82113" lon="6.75001">
        <ele>2362.23</ele>
        <time>2014-02-24T09:44:00Z</time>
      </trkpt>
      <trkpt lat="44.82099" lon="6.74985">
        <ele>2368.34</ele>
        <time>2014-02-24T09:44:35Z</time>
      </trkpt>
      <trkpt lat="44.82086" lon="6.74967">
        <ele>2374.83</ele>
        <time>2014-02-24T09:45:12Z</time>
      </trkpt>
      <trkpt lat="44.82068" lon="6.7496">
        <ele>2375.68</ele>
        <time>2014-02-24T09:45:41Z</time>
      </trkpt>
      <trkpt lat="44.8205" lon="6.74963">
        <ele>2376.82</ele>
        <time>2014-02-24T09:46:13Z</time>
      </trkpt>
      <trkpt lat="44.82032" lon="6.74964">
        <ele>2387.9</ele>
        <time>2014-02-24T09:46:53Z</time>
      </trkpt>
      <trkpt lat="44.82014" lon="6.74965">
        <ele>2390.19</ele>
        <time>2014-02-24T09:47:30Z</time>
      </trkpt>
      <trkpt lat="44.81997" lon="6.74954">
        <ele>2394.69</ele>
        <time>2014-02-24T09:48:23Z</time>
      </trkpt>
      <trkpt lat="44.81989" lon="6.7493">
        <ele>2405.42</ele>
        <time>2014-02-24T09:49:08Z</time>
      </trkpt>
      <trkpt lat="44.81983" lon="6.74907">
        <ele>2413.18</ele>
        <time>2014-02-24T09:49:35Z</time>
      </trkpt>
      <trkpt lat="44.81977" lon="6.74882">
        <ele>2428.16</ele>
        <time>2014-02-24T09:50:08Z</time>
      </trkpt>
      <trkpt lat="44.81961" lon="6.74868">
        <ele>2435.3</ele>
        <time>2014-02-24T09:50:43Z</time>
      </trkpt>
      <trkpt lat="44.81945" lon="6.7488">
        <ele>2440.08</ele>
        <time>2014-02-24T09:51:29Z</time>
      </trkpt>
      <trkpt lat="44.8193" lon="6.74894">
        <ele>2451.16</ele>
        <time>2014-02-24T09:52:10Z</time>
      </trkpt>
      <trkpt lat="44.81912" lon="6.749">
        <ele>2453.41</ele>
        <time>2014-02-24T09:52:54Z</time>
      </trkpt>
      <trkpt lat="44.81894" lon="6.74902">
        <ele>2460.22</ele>
        <time>2014-02-24T09:53:30Z</time>
      </trkpt>
      <trkpt lat="44.81883" lon="6.74882">
        <ele>2466.43</ele>
        <time>2014-02-24T09:54:14Z</time>
      </trkpt>
      <trkpt lat="44.81875" lon="6.74859">
        <ele>2474.78</ele>
        <time>2014-02-24T09:54:46Z</time>
      </trkpt>
      <trkpt lat="44.81867" lon="6.74835">
        <ele>2482.59</ele>
        <time>2014-02-24T09:55:22Z</time>
      </trkpt>
      <trkpt lat="44.81861" lon="6.74811">
        <ele>2487.24</ele>
        <time>2014-02-24T09:56:07Z</time>
      </trkpt>
      <trkpt lat="44.81864" lon="6.74786">
        <ele>2502.94</ele>
        <time>2014-02-24T09:56:55Z</time>
      </trkpt>
      <trkpt lat="44.81861" lon="6.7476">
        <ele>2510.93</ele>
        <time>2014-02-24T09:57:27Z</time>
      </trkpt>
      <trkpt lat="44.81857" lon="6.74735">
        <ele>2513.85</ele>
        <time>2014-02-24T09:57:58Z</time>
      </trkpt>
      <trkpt lat="44.81841" lon="6.74747">
        <ele>2526.9</ele>
        <time>2014-02-24T09:58:58Z</time>
      </trkpt>
      <trkpt lat="44.81823" lon="6.74753">
        <ele>2535.43</ele>
        <time>2014-02-24T09:59:37Z</time>
      </trkpt>
      <trkpt lat="44.81806" lon="6.74744">
        <ele>2543.91</ele>
        <time>2014-02-24T10:00:43Z</time>
      </trkpt>
      <trkpt lat="44.81806" lon="6.74718">
        <ele>2555.87</ele>
        <time>2014-02-24T10:01:45Z</time>
      </trkpt>
      <trkpt lat="44.81804" lon="6.74692">
        <ele>2564.93</ele>
        <time>2014-02-24T10:02:18Z</time>
      </trkpt>
      <trkpt lat="44.8179" lon="6.74676">
        <ele>2570.3</ele>
        <time>2014-02-24T10:03:46Z</time>
      </trkpt>
      <trkpt lat="44.81773" lon="6.74682">
        <ele>2580.3</ele>
        <time>2014-02-24T10:04:28Z</time>
      </trkpt>
      <trkpt lat="44.81757" lon="6.74696">
        <ele>2588.04</ele>
        <time>2014-02-24T10:05:19Z</time>
      </trkpt>
      <trkpt lat="44.81746" lon="6.74676">
        <ele>2595.19</ele>
        <time>2014-02-24T10:05:51Z</time>
      </trkpt>
      <trkpt lat="44.81728" lon="6.74674">
        <ele>2609.11</ele>
        <time>2014-02-24T10:07:10Z</time>
      </trkpt>
      <trkpt lat="44.81716" lon="6.74694">
        <ele>2618.31</ele>
        <time>2014-02-24T10:07:55Z</time>
      </trkpt>
      <trkpt lat="44.8171" lon="6.74718">
        <ele>2616.54</ele>
        <time>2014-02-24T10:08:27Z</time>
      </trkpt>
      <trkpt lat="44.81693" lon="6.74707">
        <ele>2629.69</ele>
        <time>2014-02-24T10:08:58Z</time>
      </trkpt>
      <trkpt lat="44.81676" lon="6.74714">
        <ele>2646.43</ele>
        <time>2014-02-24T10:10:36Z</time>
      </trkpt>
      <trkpt lat="44.81664" lon="6.74694">
        <ele>2649.53</ele>
        <time>2014-02-24T10:11:21Z</time>
      </trkpt>
      <trkpt lat="44.81652" lon="6.74675">
        <ele>2657.44</ele>
        <time>2014-02-24T10:12:12Z</time>
      </trkpt>
      <trkpt lat="44.81645" lon="6.74652">
        <ele>2663.07</ele>
        <time>2014-02-24T10:12:51Z</time>
      </trkpt>
      <trkpt lat="44.81629" lon="6.74664">
        <ele>2680.1</ele>
        <time>2014-02-24T10:14:17Z</time>
      </trkpt>
      <trkpt lat="44.81611" lon="6.74656">
        <ele>2686.44</ele>
        <time>2014-02-24T10:15:41Z</time>
      </trkpt>
      <trkpt lat="44.81595" lon="6.74646">
        <ele>2685.27</ele>
        <time>2014-02-24T10:16:29Z</time>
      </trkpt>
      <trkpt lat="44.81578" lon="6.74655">
        <ele>2693.71</ele>
        <time>2014-02-24T10:18:34Z</time>
      </trkpt>
      <trkpt lat="44.81571" lon="6.74679">
        <ele>2699.69</ele>
        <time>2014-02-24T10:19:04Z</time>
      </trkpt>
      <trkpt lat="44.81568" lon="6.74704">
        <ele>2714.01</ele>
        <time>2014-02-24T10:20:34Z</time>
      </trkpt>
      <trkpt lat="44.81555" lon="6.74722">
        <ele>2725.39</ele>
        <time>2014-02-24T10:22:31Z</time>
      </trkpt>
      <trkpt lat="44.81538" lon="6.7473">
        <ele>2729.7</ele>
        <time>2014-02-24T10:23:44Z</time>
      </trkpt>
      <trkpt lat="44.81522" lon="6.7474">
        <ele>2741.79</ele>
        <time>2014-02-24T10:24:19Z</time>
      </trkpt>
      <trkpt lat="44.81505" lon="6.74751">
        <ele>2742.91</ele>
        <time>2014-02-24T10:24:55Z</time>
      </trkpt>
      <trkpt lat="44.81487" lon="6.74752">
        <ele>2747.39</ele>
        <time>2014-02-24T10:25:24Z</time>
      </trkpt>
      <trkpt lat="44.81469" lon="6.7475">
        <ele>2755.83</ele>
        <time>2014-02-24T10:25:54Z</time>
      </trkpt>
      <trkpt lat="44.81459" lon="6.74772">
        <ele>2773.45</ele>
        <time>2014-02-24T10:30:03Z</time>
      </trkpt>
      <trkpt lat="44.81455" lon="6.74797">
        <ele>2781.84</ele>
        <time>2014-02-24T10:33:16Z</time>
      </trkpt>
      <trkpt lat="44.81437" lon="6.74792">
        <ele>2793.44</ele>
        <time>2014-02-24T10:34:32Z</time>
      </trkpt>
      <trkpt lat="44.81421" lon="6.74806">
        <ele>2801.06</ele>
        <time>2014-02-24T10:36:45Z</time>
      </trkpt>
      <trkpt lat="44.81404" lon="6.74812">
        <ele>2812.71</ele>
        <time>2014-02-24T10:38:01Z</time>
      </trkpt>
      <trkpt lat="44.81386" lon="6.74818">
        <ele>2825.45</ele>
        <time>2014-02-24T10:45:42Z</time>
      </trkpt>
      <trkpt lat="44.81371" lon="6.74833">
        <ele>2839.67</ele>
        <time>2014-02-24T10:49:01Z</time>
      </trkpt>
      <trkpt lat="44.81356" lon="6.74848">
        <ele>2843.94</ele>
        <time>2014-02-24T10:49:37Z</time>
      </trkpt>
      <trkpt lat="44.81361" lon="6.74873">
        <ele>2845</ele>
        <time>2014-02-24T11:44:19Z</time>
      </trkpt>
      <trkpt lat="44.81362" lon="6.74899">
        <ele>2839.11</ele>
        <time>2014-02-24T11:44:29Z</time>
      </trkpt>
      <trkpt lat="44.81371" lon="6.74924">
        <ele>2833.78</ele>
        <time>2014-02-24T11:44:38Z</time>
      </trkpt>
      <trkpt lat="44.81386" lon="6.74943">
        <ele>2829.67</ele>
        <time>2014-02-24T11:44:45Z</time>
      </trkpt>
      <trkpt lat="44.81398" lon="6.74964">
        <ele>2826.27</ele>
        <time>2014-02-24T11:44:52Z</time>
      </trkpt>
      <trkpt lat="44.8139" lon="6.74989">
        <ele>2821.25</ele>
        <time>2014-02-24T11:45:04Z</time>
      </trkpt>
      <trkpt lat="44.81392" lon="6.75015">
        <ele>2817.38</ele>
        <time>2014-02-24T11:45:15Z</time>
      </trkpt>
      <trkpt lat="44.81381" lon="6.75038">
        <ele>2808.17</ele>
        <time>2014-02-24T11:45:23Z</time>
      </trkpt>
      <trkpt lat="44.81382" lon="6.75064">
        <ele>2806.54</ele>
        <time>2014-02-24T11:45:30Z</time>
      </trkpt>
      <trkpt lat="44.81386" lon="6.7509">
        <ele>2793.99</ele>
        <time>2014-02-24T11:45:45Z</time>
      </trkpt>
      <trkpt lat="44.81381" lon="6.75117">
        <ele>2785.77</ele>
        <time>2014-02-24T11:45:55Z</time>
      </trkpt>
      <trkpt lat="44.81378" lon="6.75143">
        <ele>2781.95</ele>
        <time>2014-02-24T11:47:30Z</time>
      </trkpt>
      <trkpt lat="44.81397" lon="6.75137">
        <ele>2771.68</ele>
        <time>2014-02-24T11:47:49Z</time>
      </trkpt>
      <trkpt lat="44.81415" lon="6.75145">
        <ele>2762.16</ele>
        <time>2014-02-24T11:48:36Z</time>
      </trkpt>
      <trkpt lat="44.8143" lon="6.7516">
        <ele>2751.41</ele>
        <time>2014-02-24T11:48:47Z</time>
      </trkpt>
      <trkpt lat="44.8144" lon="6.75182">
        <ele>2740.23</ele>
        <time>2014-02-24T11:49:54Z</time>
      </trkpt>
      <trkpt lat="44.81456" lon="6.75168">
        <ele>2727.05</ele>
        <time>2014-02-24T11:51:58Z</time>
      </trkpt>
      <trkpt lat="44.81474" lon="6.75158">
        <ele>2720.22</ele>
        <time>2014-02-24T11:52:14Z</time>
      </trkpt>
      <trkpt lat="44.81493" lon="6.75158">
        <ele>2706.26</ele>
        <time>2014-02-24T11:52:39Z</time>
      </trkpt>
      <trkpt lat="44.81511" lon="6.75161">
        <ele>2686.89</ele>
        <time>2014-02-24T11:53:37Z</time>
      </trkpt>
      <trkpt lat="44.81528" lon="6.75151">
        <ele>2674.86</ele>
        <time>2014-02-24T11:54:04Z</time>
      </trkpt>
      <trkpt lat="44.81533" lon="6.75125">
        <ele>2669.65</ele>
        <time>2014-02-24T11:54:13Z</time>
      </trkpt>
      <trkpt lat="44.81539" lon="6.75101">
        <ele>2665.34</ele>
        <time>2014-02-24T11:54:21Z</time>
      </trkpt>
      <trkpt lat="44.81557" lon="6.75091">
        <ele>2652.39</ele>
        <time>2014-02-24T11:54:41Z</time>
      </trkpt>
      <trkpt lat="44.81576" lon="6.75099">
        <ele>2639.91</ele>
        <time>2014-02-24T11:54:54Z</time>
      </trkpt>
      <trkpt lat="44.81594" lon="6.75109">
        <ele>2621.83</ele>
        <time>2014-02-24T11:55:08Z</time>
      </trkpt>
      <trkpt lat="44.81612" lon="6.75118">
        <ele>2605.89</ele>
        <time>2014-02-24T11:55:38Z</time>
      </trkpt>
      <trkpt lat="44.81626" lon="6.75134">
        <ele>2594.92</ele>
        <time>2014-02-24T11:55:55Z</time>
      </trkpt>
      <trkpt lat="44.81642" lon="6.75148">
        <ele>2579.56</ele>
        <time>2014-02-24T11:56:07Z</time>
      </trkpt>
      <trkpt lat="44.81662" lon="6.75149">
        <ele>2561.33</ele>
        <time>2014-02-24T11:56:17Z</time>
      </trkpt>
      <trkpt lat="44.81677" lon="6.75162">
        <ele>2550.03</ele>
        <time>2014-02-24T11:56:28Z</time>
      </trkpt>
      <trkpt lat="44.81697" lon="6.75168">
        <ele>2538.17</ele>
        <time>2014-02-24T11:56:37Z</time>
      </trkpt>
      <trkpt lat="44.81714" lon="6.75174">
        <ele>2527.37</ele>
        <time>2014-02-24T11:56:45Z</time>
      </trkpt>
      <trkpt lat="44.81732" lon="6.75181">
        <ele>2514.28</ele>
        <time>2014-02-24T11:56:53Z</time>
      </trkpt>
      <trkpt lat="44.8175" lon="6.75178">
        <ele>2503.49</ele>
        <time>2014-02-24T11:57:01Z</time>
      </trkpt>
      <trkpt lat="44.81769" lon="6.75183">
        <ele>2491.74</ele>
        <time>2014-02-24T11:57:09Z</time>
      </trkpt>
      <trkpt lat="44.81787" lon="6.75185">
        <ele>2481.76</ele>
        <time>2014-02-24T11:57:16Z</time>
      </trkpt>
      <trkpt lat="44.81807" lon="6.75181">
        <ele>2472.84</ele>
        <time>2014-02-24T11:57:23Z</time>
      </trkpt>
      <trkpt lat="44.81826" lon="6.75175">
        <ele>2463.78</ele>
        <time>2014-02-24T11:57:32Z</time>
      </trkpt>
      <trkpt lat="44.81845" lon="6.75174">
        <ele>2453.92</ele>
        <time>2014-02-24T11:57:40Z</time>
      </trkpt>
      <trkpt lat="44.81865" lon="6.75167">
        <ele>2444.53</ele>
        <time>2014-02-24T11:57:46Z</time>
      </trkpt>
      <trkpt lat="44.81885" lon="6.75169">
        <ele>2434.73</ele>
        <time>2014-02-24T11:57:53Z</time>
      </trkpt>
      <trkpt lat="44.81901" lon="6.75151">
        <ele>2426.12</ele>
        <time>2014-02-24T11:57:59Z</time>
      </trkpt>
      <trkpt lat="44.81921" lon="6.75152">
        <ele>2416.77</ele>
        <time>2014-02-24T11:58:05Z</time>
      </trkpt>
      <trkpt lat="44.8194" lon="6.75149">
        <ele>2408.92</ele>
        <time>2014-02-24T11:58:11Z</time>
      </trkpt>
      <trkpt lat="44.81961" lon="6.75146">
        <ele>2401.98</ele>
        <time>2014-02-24T11:58:17Z</time>
      </trkpt>
      <trkpt lat="44.8198" lon="6.75147">
        <ele>2393.37</ele>
        <time>2014-02-24T11:58:22Z</time>
      </trkpt>
      <trkpt lat="44.82002" lon="6.75143">
        <ele>2384.69</ele>
        <time>2014-02-24T11:58:27Z</time>
      </trkpt>
      <trkpt lat="44.8202" lon="6.75147">
        <ele>2379.46</ele>
        <time>2014-02-24T11:58:31Z</time>
      </trkpt>
      <trkpt lat="44.82038" lon="6.75139">
        <ele>2378.46</ele>
        <time>2014-02-24T11:59:00Z</time>
      </trkpt>
      <trkpt lat="44.82051" lon="6.75118">
        <ele>2380.64</ele>
        <time>2014-02-24T12:01:54Z</time>
      </trkpt>
      <trkpt lat="44.8206" lon="6.75096">
        <ele>2378.26</ele>
        <time>2014-02-24T12:02:01Z</time>
      </trkpt>
      <trkpt lat="44.8207" lon="6.75072">
        <ele>2376.13</ele>
        <time>2014-02-24T12:02:08Z</time>
      </trkpt>
      <trkpt lat="44.82081" lon="6.7505">
        <ele>2372.78</ele>
        <time>2014-02-24T12:02:18Z</time>
      </trkpt>
      <trkpt lat="44.82091" lon="6.75027">
        <ele>2370.01</ele>
        <time>2014-02-24T12:02:24Z</time>
      </trkpt>
      <trkpt lat="44.82099" lon="6.74999">
        <ele>2366.87</ele>
        <time>2014-02-24T12:02:29Z</time>
      </trkpt>
      <trkpt lat="44.82107" lon="6.74975">
        <ele>2365.53</ele>
        <time>2014-02-24T12:02:35Z</time>
      </trkpt>
      <trkpt lat="44.82116" lon="6.74951">
        <ele>2362.79</ele>
        <time>2014-02-24T12:02:40Z</time>
      </trkpt>
      <trkpt lat="44.82124" lon="6.74928">
        <ele>2361.71</ele>
        <time>2014-02-24T12:02:45Z</time>
      </trkpt>
      <trkpt lat="44.82134" lon="6.74902">
        <ele>2361.79</ele>
        <time>2014-02-24T12:02:51Z</time>
      </trkpt>
      <trkpt lat="44.82144" lon="6.74876">
        <ele>2357.59</ele>
        <time>2014-02-24T12:02:55Z</time>
      </trkpt>
      <trkpt lat="44.82154" lon="6.74846">
        <ele>2356.02</ele>
        <time>2014-02-24T12:02:59Z</time>
      </trkpt>
      <trkpt lat="44.82162" lon="6.74823">
        <ele>2351.27</ele>
        <time>2014-02-24T12:03:02Z</time>
      </trkpt>
      <trkpt lat="44.82176" lon="6.74798">
        <ele>2347</ele>
        <time>2014-02-24T12:03:06Z</time>
      </trkpt>
      <trkpt lat="44.82192" lon="6.74783">
        <ele>2344.62</ele>
        <time>2014-02-24T12:03:11Z</time>
      </trkpt>
      <trkpt lat="44.82207" lon="6.74768">
        <ele>2342.56</ele>
        <time>2014-02-24T12:03:17Z</time>
      </trkpt>
      <trkpt lat="44.82225" lon="6.74753">
        <ele>2340.8</ele>
        <time>2014-02-24T12:03:24Z</time>
      </trkpt>
      <trkpt lat="44.82241" lon="6.74739">
        <ele>2340.62</ele>
        <time>2014-02-24T12:03:30Z</time>
      </trkpt>
      <trkpt lat="44.82258" lon="6.74726">
        <ele>2342.63</ele>
        <time>2014-02-24T12:03:37Z</time>
      </trkpt>
      <trkpt lat="44.82276" lon="6.74715">
        <ele>2340.6</ele>
        <time>2014-02-24T12:03:43Z</time>
      </trkpt>
      <trkpt lat="44.82291" lon="6.747">
        <ele>2341.06</ele>
        <time>2014-02-24T12:13:04Z</time>
      </trkpt>
      <trkpt lat="44.82308" lon="6.7469">
        <ele>2340.57</ele>
        <time>2014-02-24T12:13:25Z</time>
      </trkpt>
      <trkpt lat="44.82324" lon="6.74677">
        <ele>2342.6</ele>
        <time>2014-02-24T12:13:49Z</time>
      </trkpt>
      <trkpt lat="44.82339" lon="6.74662">
        <ele>2345.97</ele>
        <time>2014-02-24T12:14:16Z</time>
      </trkpt>
      <trkpt lat="44.82354" lon="6.74647">
        <ele>2348.01</ele>
        <time>2014-02-24T12:14:45Z</time>
      </trkpt>
      <trkpt lat="44.82368" lon="6.74631">
        <ele>2353.1</ele>
        <time>2014-02-24T12:15:14Z</time>
      </trkpt>
      <trkpt lat="44.82385" lon="6.74621">
        <ele>2359.95</ele>
        <time>2014-02-24T12:15:53Z</time>
      </trkpt>
      <trkpt lat="44.8239" lon="6.74596">
        <ele>2363.46</ele>
        <time>2014-02-24T12:51:30Z</time>
      </trkpt>
      <trkpt lat="44.82377" lon="6.74579">
        <ele>2361.62</ele>
        <time>2014-02-24T12:53:41Z</time>
      </trkpt>
      <trkpt lat="44.82369" lon="6.74556">
        <ele>2362.83</ele>
        <time>2014-02-24T12:54:20Z</time>
      </trkpt>
      <trkpt lat="44.82369" lon="6.7453">
        <ele>2373.16</ele>
        <time>2014-02-24T12:54:47Z</time>
      </trkpt>
      <trkpt lat="44.82376" lon="6.74505">
        <ele>2380.55</ele>
        <time>2014-02-24T12:55:16Z</time>
      </trkpt>
      <trkpt lat="44.82378" lon="6.7448">
        <ele>2384.45</ele>
        <time>2014-02-24T12:56:08Z</time>
      </trkpt>
      <trkpt lat="44.82363" lon="6.74464">
        <ele>2375.44</ele>
        <time>2014-02-24T12:56:45Z</time>
      </trkpt>
      <trkpt lat="44.82363" lon="6.74439">
        <ele>2394.38</ele>
        <time>2014-02-24T12:57:29Z</time>
      </trkpt>
      <trkpt lat="44.82362" lon="6.74413">
        <ele>2404.38</ele>
        <time>2014-02-24T12:58:12Z</time>
      </trkpt>
      <trkpt lat="44.82362" lon="6.74388">
        <ele>2409</ele>
        <time>2014-02-24T12:58:51Z</time>
      </trkpt>
      <trkpt lat="44.82363" lon="6.74362">
        <ele>2416.68</ele>
        <time>2014-02-24T12:59:17Z</time>
      </trkpt>
      <trkpt lat="44.82363" lon="6.74336">
        <ele>2412.62</ele>
        <time>2014-02-24T13:00:04Z</time>
      </trkpt>
      <trkpt lat="44.82368" lon="6.74312">
        <ele>2420.98</ele>
        <time>2014-02-24T13:00:36Z</time>
      </trkpt>
      <trkpt lat="44.82374" lon="6.74288">
        <ele>2436.06</ele>
        <time>2014-02-24T13:00:57Z</time>
      </trkpt>
      <trkpt lat="44.82382" lon="6.74264">
        <ele>2440.99</ele>
        <time>2014-02-24T13:01:36Z</time>
      </trkpt>
      <trkpt lat="44.82393" lon="6.74244">
        <ele>2448.44</ele>
        <time>2014-02-24T13:02:26Z</time>
      </trkpt>
      <trkpt lat="44.82384" lon="6.74222">
        <ele>2455.32</ele>
        <time>2014-02-24T13:03:16Z</time>
      </trkpt>
      <trkpt lat="44.82368" lon="6.74208">
        <ele>2462.3</ele>
        <time>2014-02-24T13:04:03Z</time>
      </trkpt>
      <trkpt lat="44.82378" lon="6.74186">
        <ele>2465.43</ele>
        <time>2014-02-24T13:05:14Z</time>
      </trkpt>
      <trkpt lat="44.82395" lon="6.7418">
        <ele>2465.95</ele>
        <time>2014-02-24T13:05:45Z</time>
      </trkpt>
      <trkpt lat="44.82413" lon="6.74179">
        <ele>2471.27</ele>
        <time>2014-02-24T13:06:14Z</time>
      </trkpt>
      <trkpt lat="44.82431" lon="6.74175">
        <ele>2478.16</ele>
        <time>2014-02-24T13:06:49Z</time>
      </trkpt>
      <trkpt lat="44.8245" lon="6.74175">
        <ele>2486.75</ele>
        <time>2014-02-24T13:07:24Z</time>
      </trkpt>
      <trkpt lat="44.82467" lon="6.74181">
        <ele>2494.46</ele>
        <time>2014-02-24T13:08:09Z</time>
      </trkpt>
      <trkpt lat="44.82486" lon="6.74184">
        <ele>2501.42</ele>
        <time>2014-02-24T13:08:54Z</time>
      </trkpt>
      <trkpt lat="44.82504" lon="6.74184">
        <ele>2510.49</ele>
        <time>2014-02-24T13:10:08Z</time>
      </trkpt>
      <trkpt lat="44.82522" lon="6.74187">
        <ele>2517.17</ele>
        <time>2014-02-24T13:11:13Z</time>
      </trkpt>
      <trkpt lat="44.8254" lon="6.74191">
        <ele>2530.91</ele>
        <time>2014-02-24T13:11:54Z</time>
      </trkpt>
      <trkpt lat="44.82558" lon="6.74192">
        <ele>2545.09</ele>
        <time>2014-02-24T13:13:14Z</time>
      </trkpt>
      <trkpt lat="44.82574" lon="6.74179">
        <ele>2555.44</ele>
        <time>2014-02-24T13:14:49Z</time>
      </trkpt>
      <trkpt lat="44.82591" lon="6.74186">
        <ele>2567.19</ele>
        <time>2014-02-24T13:15:52Z</time>
      </trkpt>
      <trkpt lat="44.82608" lon="6.74175">
        <ele>2572.45</ele>
        <time>2014-02-24T13:17:11Z</time>
      </trkpt>
      <trkpt lat="44.82626" lon="6.74179">
        <ele>2588.39</ele>
        <time>2014-02-24T13:18:38Z</time>
      </trkpt>
      <trkpt lat="44.82644" lon="6.74174">
        <ele>2591.44</ele>
        <time>2014-02-24T13:19:40Z</time>
      </trkpt>
      <trkpt lat="44.82652" lon="6.74198">
        <ele>2592.23</ele>
        <time>2014-02-24T13:44:37Z</time>
      </trkpt>
      <trkpt lat="44.82671" lon="6.74198">
        <ele>2575.65</ele>
        <time>2014-02-24T13:45:05Z</time>
      </trkpt>
      <trkpt lat="44.82688" lon="6.74188">
        <ele>2562.84</ele>
        <time>2014-02-24T13:45:23Z</time>
      </trkpt>
      <trkpt lat="44.82702" lon="6.74171">
        <ele>2547.68</ele>
        <time>2014-02-24T13:45:42Z</time>
      </trkpt>
      <trkpt lat="44.82719" lon="6.7416">
        <ele>2530.66</ele>
        <time>2014-02-24T13:46:05Z</time>
      </trkpt>
      <trkpt lat="44.82721" lon="6.74131">
        <ele>2522.32</ele>
        <time>2014-02-24T13:46:16Z</time>
      </trkpt>
      <trkpt lat="44.82731" lon="6.74109">
        <ele>2518.45</ele>
        <time>2014-02-24T13:50:26Z</time>
      </trkpt>
      <trkpt lat="44.82735" lon="6.74084">
        <ele>2515.49</ele>
        <time>2014-02-24T13:50:41Z</time>
      </trkpt>
      <trkpt lat="44.82751" lon="6.7407">
        <ele>2504.4</ele>
        <time>2014-02-24T13:51:06Z</time>
      </trkpt>
      <trkpt lat="44.82768" lon="6.74059">
        <ele>2495.07</ele>
        <time>2014-02-24T13:51:14Z</time>
      </trkpt>
      <trkpt lat="44.82784" lon="6.74046">
        <ele>2468.96</ele>
        <time>2014-02-24T13:51:28Z</time>
      </trkpt>
      <trkpt lat="44.82801" lon="6.74037">
        <ele>2456.62</ele>
        <time>2014-02-24T13:51:36Z</time>
      </trkpt>
      <trkpt lat="44.82818" lon="6.74025">
        <ele>2444.76</ele>
        <time>2014-02-24T13:55:29Z</time>
      </trkpt>
      <trkpt lat="44.82834" lon="6.7401">
        <ele>2438.23</ele>
        <time>2014-02-24T13:55:43Z</time>
      </trkpt>
      <trkpt lat="44.82852" lon="6.74">
        <ele>2427.08</ele>
        <time>2014-02-24T13:55:50Z</time>
      </trkpt>
      <trkpt lat="44.82871" lon="6.74006">
        <ele>2412.89</ele>
        <time>2014-02-24T13:55:56Z</time>
      </trkpt>
      <trkpt lat="44.82891" lon="6.7401">
        <ele>2403.55</ele>
        <time>2014-02-24T13:56:02Z</time>
      </trkpt>
      <trkpt lat="44.82909" lon="6.74012">
        <ele>2396.06</ele>
        <time>2014-02-24T13:56:08Z</time>
      </trkpt>
      <trkpt lat="44.82929" lon="6.74013">
        <ele>2383.76</ele>
        <time>2014-02-24T13:56:15Z</time>
      </trkpt>
      <trkpt lat="44.82947" lon="6.74019">
        <ele>2374.15</ele>
        <time>2014-02-24T13:56:21Z</time>
      </trkpt>
      <trkpt lat="44.82968" lon="6.7402">
        <ele>2366.72</ele>
        <time>2014-02-24T13:56:26Z</time>
      </trkpt>
      <trkpt lat="44.8299" lon="6.74014">
        <ele>2362.6</ele>
        <time>2014-02-24T13:56:29Z</time>
      </trkpt>
      <trkpt lat="44.8301" lon="6.74007">
        <ele>2356.84</ele>
        <time>2014-02-24T13:56:32Z</time>
      </trkpt>
      <trkpt lat="44.83028" lon="6.74002">
        <ele>2354.12</ele>
        <time>2014-02-24T13:56:35Z</time>
      </trkpt>
      <trkpt lat="44.83047" lon="6.73994">
        <ele>2351.51</ele>
        <time>2014-02-24T13:58:37Z</time>
      </trkpt>
      <trkpt lat="44.83067" lon="6.7399">
        <ele>2346.38</ele>
        <time>2014-02-24T13:58:44Z</time>
      </trkpt>
      <trkpt lat="44.83083" lon="6.73979">
        <ele>2343.05</ele>
        <time>2014-02-24T13:58:50Z</time>
      </trkpt>
      <trkpt lat="44.83101" lon="6.73988">
        <ele>2337.63</ele>
        <time>2014-02-24T13:58:57Z</time>
      </trkpt>
      <trkpt lat="44.83119" lon="6.73992">
        <ele>2333.28</ele>
        <time>2014-02-24T13:59:04Z</time>
      </trkpt>
      <trkpt lat="44.83135" lon="6.73977">
        <ele>2326.29</ele>
        <time>2014-02-24T13:59:12Z</time>
      </trkpt>
      <trkpt lat="44.83145" lon="6.73954">
        <ele>2314.02</ele>
        <time>2014-02-24T13:59:40Z</time>
      </trkpt>
      <trkpt lat="44.83151" lon="6.7393">
        <ele>2305.98</ele>
        <time>2014-02-24T13:59:56Z</time>
      </trkpt>
      <trkpt lat="44.83161" lon="6.73908">
        <ele>2300.45</ele>
        <time>2014-02-24T14:00:11Z</time>
      </trkpt>
      <trkpt lat="44.83182" lon="6.73903">
        <ele>2295.21</ele>
        <time>2014-02-24T14:00:17Z</time>
      </trkpt>
      <trkpt lat="44.83199" lon="6.73897">
        <ele>2297.19</ele>
        <time>2014-02-24T14:00:25Z</time>
      </trkpt>
      <trkpt lat="44.83218" lon="6.73895">
        <ele>2292.64</ele>
        <time>2014-02-24T14:00:40Z</time>
      </trkpt>
      <trkpt lat="44.83236" lon="6.73882">
        <ele>2290.38</ele>
        <time>2014-02-24T14:00:48Z</time>
      </trkpt>
      <trkpt lat="44.83252" lon="6.73869">
        <ele>2286.4</ele>
        <time>2014-02-24T14:00:54Z</time>
      </trkpt>
      <trkpt lat="44.83269" lon="6.73855">
        <ele>2281.37</ele>
        <time>2014-02-24T14:01:06Z</time>
      </trkpt>
      <trkpt lat="44.83283" lon="6.73835">
        <ele>2277.18</ele>
        <time>2014-02-24T14:01:13Z</time>
      </trkpt>
      <trkpt lat="44.83289" lon="6.73809">
        <ele>2274.96</ele>
        <time>2014-02-24T14:01:23Z</time>
      </trkpt>
      <trkpt lat="44.83296" lon="6.73782">
        <ele>2270.19</ele>
        <time>2014-02-24T14:01:32Z</time>
      </trkpt>
      <trkpt lat="44.83314" lon="6.73767">
        <ele>2266.85</ele>
        <time>2014-02-24T14:01:39Z</time>
      </trkpt>
      <trkpt lat="44.83327" lon="6.73746">
        <ele>2263.3</ele>
        <time>2014-02-24T14:01:44Z</time>
      </trkpt>
      <trkpt lat="44.83345" lon="6.73737">
        <ele>2255.99</ele>
        <time>2014-02-24T14:01:51Z</time>
      </trkpt>
      <trkpt lat="44.83357" lon="6.73718">
        <ele>2249.2</ele>
        <time>2014-02-24T14:03:32Z</time>
      </trkpt>
      <trkpt lat="44.83375" lon="6.73709">
        <ele>2248.42</ele>
        <time>2014-02-24T14:06:43Z</time>
      </trkpt>
      <trkpt lat="44.83395" lon="6.73704">
        <ele>2244.63</ele>
        <time>2014-02-24T14:06:48Z</time>
      </trkpt>
      <trkpt lat="44.83411" lon="6.73691">
        <ele>2246.01</ele>
        <time>2014-02-24T14:10:02Z</time>
      </trkpt>
      <trkpt lat="44.8343" lon="6.73687">
        <ele>2243.36</ele>
        <time>2014-02-24T14:10:12Z</time>
      </trkpt>
      <trkpt lat="44.83449" lon="6.73685">
        <ele>2234.05</ele>
        <time>2014-02-24T14:10:22Z</time>
      </trkpt>
      <trkpt lat="44.83469" lon="6.73689">
        <ele>2223.1</ele>
        <time>2014-02-24T14:10:29Z</time>
      </trkpt>
      <trkpt lat="44.83487" lon="6.73703">
        <ele>2221.66</ele>
        <time>2014-02-24T14:10:39Z</time>
      </trkpt>
      <trkpt lat="44.83505" lon="6.73696">
        <ele>2214.63</ele>
        <time>2014-02-24T14:10:49Z</time>
      </trkpt>
      <trkpt lat="44.8352" lon="6.73675">
        <ele>2207.49</ele>
        <time>2014-02-24T14:10:56Z</time>
      </trkpt>
      <trkpt lat="44.83527" lon="6.7365">
        <ele>2205.54</ele>
        <time>2014-02-24T14:11:03Z</time>
      </trkpt>
      <trkpt lat="44.83546" lon="6.73638">
        <ele>2194.63</ele>
        <time>2014-02-24T14:11:10Z</time>
      </trkpt>
      <trkpt lat="44.83561" lon="6.73624">
        <ele>2191.87</ele>
        <time>2014-02-24T14:11:16Z</time>
      </trkpt>
      <trkpt lat="44.83575" lon="6.73609">
        <ele>2187.53</ele>
        <time>2014-02-24T14:12:03Z</time>
      </trkpt>
      <trkpt lat="44.83589" lon="6.73591">
        <ele>2181.33</ele>
        <time>2014-02-24T14:12:13Z</time>
      </trkpt>
      <trkpt lat="44.83606" lon="6.7358">
        <ele>2174.37</ele>
        <time>2014-02-24T14:13:09Z</time>
      </trkpt>
      <trkpt lat="44.83623" lon="6.73563">
        <ele>2170.44</ele>
        <time>2014-02-24T14:13:15Z</time>
      </trkpt>
      <trkpt lat="44.8364" lon="6.73548">
        <ele>2160.75</ele>
        <time>2014-02-24T14:13:26Z</time>
      </trkpt>
      <trkpt lat="44.8365" lon="6.73523">
        <ele>2155.89</ele>
        <time>2014-02-24T14:13:40Z</time>
      </trkpt>
      <trkpt lat="44.83667" lon="6.73508">
        <ele>2151.82</ele>
        <time>2014-02-24T14:13:47Z</time>
      </trkpt>
      <trkpt lat="44.83688" lon="6.73506">
        <ele>2147.14</ele>
        <time>2014-02-24T14:13:54Z</time>
      </trkpt>
      <trkpt lat="44.83707" lon="6.73503">
        <ele>2144.81</ele>
        <time>2014-02-24T14:13:59Z</time>
      </trkpt>
      <trkpt lat="44.83726" lon="6.735">
        <ele>2143.11</ele>
        <time>2014-02-24T14:14:04Z</time>
      </trkpt>
      <trkpt lat="44.83745" lon="6.73504">
        <ele>2144.17</ele>
        <time>2014-02-24T14:14:10Z</time>
      </trkpt>
      <trkpt lat="44.83764" lon="6.7351">
        <ele>2137.03</ele>
        <time>2014-02-24T14:14:15Z</time>
      </trkpt>
      <trkpt lat="44.83781" lon="6.73501">
        <ele>2131.42</ele>
        <time>2014-02-24T14:14:23Z</time>
      </trkpt>
      <trkpt lat="44.838" lon="6.73494">
        <ele>2125.84</ele>
        <time>2014-02-24T14:14:29Z</time>
      </trkpt>
      <trkpt lat="44.83813" lon="6.73475">
        <ele>2121.29</ele>
        <time>2014-02-24T14:14:35Z</time>
      </trkpt>
      <trkpt lat="44.83821" lon="6.73451">
        <ele>2120.8</ele>
        <time>2014-02-24T14:14:42Z</time>
      </trkpt>
      <trkpt lat="44.83837" lon="6.73437">
        <ele>2111.42</ele>
        <time>2014-02-24T14:14:48Z</time>
      </trkpt>
      <trkpt lat="44.83855" lon="6.73423">
        <ele>2107.01</ele>
        <time>2014-02-24T14:14:53Z</time>
      </trkpt>
      <trkpt lat="44.83872" lon="6.73407">
        <ele>2103.18</ele>
        <time>2014-02-24T14:14:58Z</time>
      </trkpt>
      <trkpt lat="44.83889" lon="6.7339">
        <ele>2102.62</ele>
        <time>2014-02-24T14:15:02Z</time>
      </trkpt>
      <trkpt lat="44.83904" lon="6.7337">
        <ele>2099.33</ele>
        <time>2014-02-24T14:15:07Z</time>
      </trkpt>
      <trkpt lat="44.8392" lon="6.73353">
        <ele>2095.94</ele>
        <time>2014-02-24T14:15:15Z</time>
      </trkpt>
      <trkpt lat="44.8394" lon="6.73346">
        <ele>2091.65</ele>
        <time>2014-02-24T14:15:22Z</time>
      </trkpt>
      <trkpt lat="44.83956" lon="6.7333">
        <ele>2087.96</ele>
        <time>2014-02-24T14:15:26Z</time>
      </trkpt>
      <trkpt lat="44.83976" lon="6.73317">
        <ele>2085.74</ele>
        <time>2014-02-24T14:15:31Z</time>
      </trkpt>
      <trkpt lat="44.83994" lon="6.73309">
        <ele>2083.95</ele>
        <time>2014-02-24T14:15:44Z</time>
      </trkpt>
      <trkpt lat="44.84011" lon="6.73298">
        <ele>2079.21</ele>
        <time>2014-02-24T14:15:51Z</time>
      </trkpt>
      <trkpt lat="44.84029" lon="6.73293">
        <ele>2073.29</ele>
        <time>2014-02-24T14:15:58Z</time>
      </trkpt>
      <trkpt lat="44.84047" lon="6.73291">
        <ele>2067.62</ele>
        <time>2014-02-24T14:16:05Z</time>
      </trkpt>
      <trkpt lat="44.84068" lon="6.73284">
        <ele>2062.63</ele>
        <time>2014-02-24T14:16:13Z</time>
      </trkpt>
      <trkpt lat="44.84079" lon="6.73263">
        <ele>2056.33</ele>
        <time>2014-02-24T14:16:50Z</time>
      </trkpt>
      <trkpt lat="44.84095" lon="6.73249">
        <ele>2055.95</ele>
        <time>2014-02-24T14:17:13Z</time>
      </trkpt>
      <trkpt lat="44.84114" lon="6.73241">
        <ele>2049.05</ele>
        <time>2014-02-24T14:17:23Z</time>
      </trkpt>
      <trkpt lat="44.84133" lon="6.73239">
        <ele>2041.55</ele>
        <time>2014-02-24T14:17:30Z</time>
      </trkpt>
      <trkpt lat="44.84156" lon="6.7325">
        <ele>2039.2</ele>
        <time>2014-02-24T14:17:35Z</time>
      </trkpt>
      <trkpt lat="44.84175" lon="6.73246">
        <ele>2096.62</ele>
        <time>2014-02-24T14:17:40Z</time>
      </trkpt>
      <trkpt lat="44.84194" lon="6.73236">
        <ele>2029.84</ele>
        <time>2014-02-24T14:18:08Z</time>
      </trkpt>
      <trkpt lat="44.84212" lon="6.73227">
        <ele>2028.14</ele>
        <time>2014-02-24T14:18:14Z</time>
      </trkpt>
      <trkpt lat="44.84228" lon="6.73211">
        <ele>2024.97</ele>
        <time>2014-02-24T14:18:19Z</time>
      </trkpt>
      <trkpt lat="44.84245" lon="6.73198">
        <ele>2020.78</ele>
        <time>2014-02-24T14:18:26Z</time>
      </trkpt>
      <trkpt lat="44.84266" lon="6.73203">
        <ele>2019.55</ele>
        <time>2014-02-24T14:18:59Z</time>
      </trkpt>
      <trkpt lat="44.84286" lon="6.73199">
        <ele>2017.45</ele>
        <time>2014-02-24T14:19:05Z</time>
      </trkpt>
      <trkpt lat="44.84303" lon="6.7319">
        <ele>2008.32</ele>
        <time>2014-02-24T14:19:10Z</time>
      </trkpt>
      <trkpt lat="44.84319" lon="6.73175">
        <ele>2004.16</ele>
        <time>2014-02-24T14:19:15Z</time>
      </trkpt>
      <trkpt lat="44.84336" lon="6.73161">
        <ele>2000.85</ele>
        <time>2014-02-24T14:19:23Z</time>
      </trkpt>
      <trkpt lat="44.84351" lon="6.73136">
        <ele>1999.62</ele>
        <time>2014-02-24T14:19:29Z</time>
      </trkpt>
      <trkpt lat="44.8436" lon="6.73113">
        <ele>2000.08</ele>
        <time>2014-02-24T14:19:34Z</time>
      </trkpt>
      <trkpt lat="44.84376" lon="6.73099">
        <ele>1992.57</ele>
        <time>2014-02-24T14:19:43Z</time>
      </trkpt>
      <trkpt lat="44.84399" lon="6.73099">
        <ele>1989.08</ele>
        <time>2014-02-24T14:19:52Z</time>
      </trkpt>
      <trkpt lat="44.84417" lon="6.73097">
        <ele>1984.43</ele>
        <time>2014-02-24T14:19:57Z</time>
      </trkpt>
      <trkpt lat="44.84434" lon="6.73113">
        <ele>1978.03</ele>
        <time>2014-02-24T14:20:05Z</time>
      </trkpt>
      <trkpt lat="44.84454" lon="6.73121">
        <ele>1970.09</ele>
        <time>2014-02-24T14:20:10Z</time>
      </trkpt>
      <trkpt lat="44.84472" lon="6.73113">
        <ele>1972.47</ele>
        <time>2014-02-24T14:21:01Z</time>
      </trkpt>
      <trkpt lat="44.84489" lon="6.731">
        <ele>1971.48</ele>
        <time>2014-02-24T14:21:07Z</time>
      </trkpt>
      <trkpt lat="44.84496" lon="6.7307">
        <ele>1965.78</ele>
        <time>2014-02-24T14:21:15Z</time>
      </trkpt>
      <trkpt lat="44.84501" lon="6.73044">
        <ele>1962.47</ele>
        <time>2014-02-24T14:21:21Z</time>
      </trkpt>
      <trkpt lat="44.84513" lon="6.73021">
        <ele>1959.15</ele>
        <time>2014-02-24T14:21:29Z</time>
      </trkpt>
      <trkpt lat="44.84525" lon="6.72999">
        <ele>1954.55</ele>
        <time>2014-02-24T14:21:35Z</time>
      </trkpt>
      <trkpt lat="44.84524" lon="6.72972">
        <ele>1950.51</ele>
        <time>2014-02-24T14:21:50Z</time>
      </trkpt>
      <trkpt lat="44.84521" lon="6.72946">
        <ele>1950.75</ele>
        <time>2014-02-24T14:22:06Z</time>
      </trkpt>
      <trkpt lat="44.8452" lon="6.7292">
        <ele>1949.23</ele>
        <time>2014-02-24T14:22:23Z</time>
      </trkpt>
      <trkpt lat="44.84509" lon="6.72896">
        <ele>1951.52</ele>
        <time>2014-02-24T14:22:48Z</time>
      </trkpt>
      <trkpt lat="44.84498" lon="6.72874">
        <ele>1949.72</ele>
        <time>2014-02-24T14:22:56Z</time>
      </trkpt>
      <trkpt lat="44.8452" lon="6.72882">
        <ele>1950.99</ele>
        <time>2014-02-24T14:25:08Z</time>
      </trkpt>
      <trkpt lat="44.84541" lon="6.72901">
        <ele>1950.29</ele>
        <time>2014-02-24T14:25:12Z</time>
      </trkpt>
      <trkpt lat="44.84548" lon="6.7293">
        <ele>1948.31</ele>
        <time>2014-02-24T14:25:16Z</time>
      </trkpt>
      <trkpt lat="44.84567" lon="6.72922">
        <ele>1939.85</ele>
        <time>2014-02-24T14:25:23Z</time>
      </trkpt>
      <trkpt lat="44.84578" lon="6.72901">
        <ele>1936.5</ele>
        <time>2014-02-24T14:25:26Z</time>
      </trkpt>
      <trkpt lat="44.84591" lon="6.7288">
        <ele>1933.33</ele>
        <time>2014-02-24T14:25:29Z</time>
      </trkpt>
      <trkpt lat="44.84604" lon="6.7286">
        <ele>1933.31</ele>
        <time>2014-02-24T14:25:32Z</time>
      </trkpt>
      <trkpt lat="44.84615" lon="6.72838">
        <ele>1931.97</ele>
        <time>2014-02-24T14:25:37Z</time>
      </trkpt>
      <trkpt lat="44.84628" lon="6.72817">
        <ele>1930.1</ele>
        <time>2014-02-24T14:25:44Z</time>
      </trkpt>
      <trkpt lat="44.84645" lon="6.72808">
        <ele>1931.93</ele>
        <time>2014-02-24T14:25:49Z</time>
      </trkpt>
      <trkpt lat="44.84664" lon="6.72803">
        <ele>1930.28</ele>
        <time>2014-02-24T14:25:56Z</time>
      </trkpt>
      <trkpt lat="44.84685" lon="6.72798">
        <ele>1928.83</ele>
        <time>2014-02-24T14:26:02Z</time>
      </trkpt>
      <trkpt lat="44.84705" lon="6.72793">
        <ele>1929.41</ele>
        <time>2014-02-24T14:26:06Z</time>
      </trkpt>
      <trkpt lat="44.84723" lon="6.7279">
        <ele>1929.19</ele>
        <time>2014-02-24T14:26:09Z</time>
      </trkpt>
      <trkpt lat="44.84743" lon="6.72788">
        <ele>1929.37</ele>
        <time>2014-02-24T14:26:13Z</time>
      </trkpt>
      <trkpt lat="44.84762" lon="6.72786">
        <ele>1926.94</ele>
        <time>2014-02-24T14:26:17Z</time>
      </trkpt>
      <trkpt lat="44.84781" lon="6.72784">
        <ele>1927.79</ele>
        <time>2014-02-24T14:26:21Z</time>
      </trkpt>
      <trkpt lat="44.84802" lon="6.72781">
        <ele>1926.39</ele>
        <time>2014-02-24T14:26:26Z</time>
      </trkpt>
      <trkpt lat="44.84822" lon="6.72771">
        <ele>1923.79</ele>
        <time>2014-02-24T14:26:31Z</time>
      </trkpt>
      <trkpt lat="44.84844" lon="6.72766">
        <ele>1922.53</ele>
        <time>2014-02-24T14:26:35Z</time>
      </trkpt>
      <trkpt lat="44.84865" lon="6.72761">
        <ele>1921.67</ele>
        <time>2014-02-24T14:26:40Z</time>
      </trkpt>
      <trkpt lat="44.84887" lon="6.72766">
        <ele>1918.32</ele>
        <time>2014-02-24T14:26:46Z</time>
      </trkpt>
      <trkpt lat="44.84907" lon="6.72775">
        <ele>1917.25</ele>
        <time>2014-02-24T14:26:51Z</time>
      </trkpt>
      <trkpt lat="44.84925" lon="6.72784">
        <ele>1919.16</ele>
        <time>2014-02-24T14:26:56Z</time>
      </trkpt>
      <trkpt lat="44.84943" lon="6.72796">
        <ele>1916.64</ele>
        <time>2014-02-24T14:27:03Z</time>
      </trkpt>
      <trkpt lat="44.84964" lon="6.728">
        <ele>1915.63</ele>
        <time>2014-02-24T14:27:10Z</time>
      </trkpt>
      <trkpt lat="44.84982" lon="6.72803">
        <ele>1914.97</ele>
        <time>2014-02-24T14:27:17Z</time>
      </trkpt>
      <trkpt lat="44.85001" lon="6.72818">
        <ele>1914.94</ele>
        <time>2014-02-24T14:27:23Z</time>
      </trkpt>
      <trkpt lat="44.84999" lon="6.72845">
        <ele>1908.99</ele>
        <time>2014-02-24T14:29:19Z</time>
      </trkpt>
      <trkpt lat="44.84978" lon="6.72858">
        <ele>1906.27</ele>
        <time>2014-02-24T14:29:24Z</time>
      </trkpt>
      <trkpt lat="44.84974" lon="6.72888">
        <ele>1905.93</ele>
        <time>2014-02-24T14:29:28Z</time>
      </trkpt>
      <trkpt lat="44.84966" lon="6.72912">
        <ele>1900.54</ele>
        <time>2014-02-24T14:29:32Z</time>
      </trkpt>
      <trkpt lat="44.84943" lon="6.72926">
        <ele>1898.64</ele>
        <time>2014-02-24T14:29:36Z</time>
      </trkpt>
      <trkpt lat="44.84927" lon="6.72946">
        <ele>1897.09</ele>
        <time>2014-02-24T14:29:39Z</time>
      </trkpt>
      <trkpt lat="44.84912" lon="6.72968">
        <ele>1897.4</ele>
        <time>2014-02-24T14:29:42Z</time>
      </trkpt>
      <trkpt lat="44.84907" lon="6.72998">
        <ele>1897.19</ele>
        <time>2014-02-24T14:29:45Z</time>
      </trkpt>
      <trkpt lat="44.8491" lon="6.73031">
        <ele>1885.62</ele>
        <time>2014-02-24T14:29:49Z</time>
      </trkpt>
      <trkpt lat="44.8491" lon="6.73056">
        <ele>1884.22</ele>
        <time>2014-02-24T14:29:52Z</time>
      </trkpt>
      <trkpt lat="44.84909" lon="6.73085">
        <ele>1882.12</ele>
        <time>2014-02-24T14:29:56Z</time>
      </trkpt>
      <trkpt lat="44.84898" lon="6.73106">
        <ele>1881.53</ele>
        <time>2014-02-24T14:29:59Z</time>
      </trkpt>
      <trkpt lat="44.84883" lon="6.73129">
        <ele>1881.46</ele>
        <time>2014-02-24T14:30:02Z</time>
      </trkpt>
      <trkpt lat="44.84871" lon="6.73158">
        <ele>1881.45</ele>
        <time>2014-02-24T14:30:05Z</time>
      </trkpt>
      <trkpt lat="44.84859" lon="6.73188">
        <ele>1880.57</ele>
        <time>2014-02-24T14:30:08Z</time>
      </trkpt>
      <trkpt lat="44.84856" lon="6.73225">
        <ele>1880.59</ele>
        <time>2014-02-24T14:30:11Z</time>
      </trkpt>
      <trkpt lat="44.84854" lon="6.73256">
        <ele>1881.21</ele>
        <time>2014-02-24T14:30:14Z</time>
      </trkpt>
      <trkpt lat="44.84846" lon="6.73289">
        <ele>1880.67</ele>
        <time>2014-02-24T14:30:17Z</time>
      </trkpt>
      <trkpt lat="44.84838" lon="6.73323">
        <ele>1880.47</ele>
        <time>2014-02-24T14:30:20Z</time>
      </trkpt>
      <trkpt lat="44.84827" lon="6.73356">
        <ele>1880.45</ele>
        <time>2014-02-24T14:30:23Z</time>
      </trkpt>
      <trkpt lat="44.84817" lon="6.73378">
        <ele>1877.45</ele>
        <time>2014-02-24T14:30:26Z</time>
      </trkpt>
      <trkpt lat="44.84809" lon="6.73401">
        <ele>1871.07</ele>
        <time>2014-02-24T14:30:29Z</time>
      </trkpt>
      <trkpt lat="44.84798" lon="6.73427">
        <ele>1864.77</ele>
        <time>2014-02-24T14:30:32Z</time>
      </trkpt>
      <trkpt lat="44.84786" lon="6.73457">
        <ele>1863.61</ele>
        <time>2014-02-24T14:30:35Z</time>
      </trkpt>
      <trkpt lat="44.8478" lon="6.73486">
        <ele>1864.97</ele>
        <time>2014-02-24T14:30:38Z</time>
      </trkpt>
      <trkpt lat="44.84771" lon="6.73509">
        <ele>1863.67</ele>
        <time>2014-02-24T14:30:42Z</time>
      </trkpt>
      <trkpt lat="44.84785" lon="6.7353">
        <ele>1845.55</ele>
        <time>2014-02-24T14:31:36Z</time>
      </trkpt>
      <trkpt lat="44.84802" lon="6.73539">
        <ele>1839.65</ele>
        <time>2014-02-24T14:31:47Z</time>
      </trkpt>
      <trkpt lat="44.84818" lon="6.73551">
        <ele>1829.33</ele>
        <time>2014-02-24T14:31:58Z</time>
      </trkpt>
      <trkpt lat="44.84835" lon="6.73565">
        <ele>1817.96</ele>
        <time>2014-02-24T14:32:06Z</time>
      </trkpt>
      <trkpt lat="44.84846" lon="6.73587">
        <ele>1811.59</ele>
        <time>2014-02-24T14:32:13Z</time>
      </trkpt>
      <trkpt lat="44.84856" lon="6.73612">
        <ele>1809.54</ele>
        <time>2014-02-24T14:32:18Z</time>
      </trkpt>
      <trkpt lat="44.84875" lon="6.73604">
        <ele>1808.23</ele>
        <time>2014-02-24T14:32:24Z</time>
      </trkpt>
      <trkpt lat="44.84892" lon="6.73593">
        <ele>1804.36</ele>
        <time>2014-02-24T14:32:30Z</time>
      </trkpt>
      <trkpt lat="44.84902" lon="6.73569">
        <ele>1802.07</ele>
        <time>2014-02-24T14:32:38Z</time>
      </trkpt>
      <trkpt lat="44.84922" lon="6.73566">
        <ele>1790.8</ele>
        <time>2014-02-24T14:33:29Z</time>
      </trkpt>
      <trkpt lat="44.84939" lon="6.73555">
        <ele>1784.43</ele>
        <time>2014-02-24T14:35:01Z</time>
      </trkpt>
      <trkpt lat="44.84954" lon="6.7354">
        <ele>1785.53</ele>
        <time>2014-02-24T14:44:23Z</time>
      </trkpt>
      <trkpt lat="44.84964" lon="6.73517">
        <ele>1784.45</ele>
        <time>2014-02-24T14:44:32Z</time>
      </trkpt>
      <trkpt lat="44.84976" lon="6.73494">
        <ele>1794.84</ele>
        <time>2014-02-24T14:44:39Z</time>
      </trkpt>
      <trkpt lat="44.84986" lon="6.73469">
        <ele>1786.21</ele>
        <time>2014-02-24T14:44:44Z</time>
      </trkpt>
      <trkpt lat="44.84992" lon="6.73445">
        <ele>1786.87</ele>
        <time>2014-02-24T14:44:48Z</time>
      </trkpt>
      <trkpt lat="44.85" lon="6.73418">
        <ele>1785.15</ele>
        <time>2014-02-24T14:44:53Z</time>
      </trkpt>
      <trkpt lat="44.8501" lon="6.73388">
        <ele>1782.28</ele>
        <time>2014-02-24T14:44:58Z</time>
      </trkpt>
      <trkpt lat="44.8502" lon="6.73362">
        <ele>1780.12</ele>
        <time>2014-02-24T14:45:02Z</time>
      </trkpt>
      <trkpt lat="44.85035" lon="6.73336">
        <ele>1777.17</ele>
        <time>2014-02-24T14:45:06Z</time>
      </trkpt>
      <trkpt lat="44.85047" lon="6.73314">
        <ele>1774.41</ele>
        <time>2014-02-24T14:45:09Z</time>
      </trkpt>
      <trkpt lat="44.85059" lon="6.73289">
        <ele>1773.19</ele>
        <time>2014-02-24T14:45:12Z</time>
      </trkpt>
      <trkpt lat="44.85073" lon="6.73267">
        <ele>1771.29</ele>
        <time>2014-02-24T14:45:15Z</time>
      </trkpt>
      <trkpt lat="44.85086" lon="6.73242">
        <ele>1769.68</ele>
        <time>2014-02-24T14:45:18Z</time>
      </trkpt>
      <trkpt lat="44.85103" lon="6.73221">
        <ele>1767.72</ele>
        <time>2014-02-24T14:45:21Z</time>
      </trkpt>
      <trkpt lat="44.85122" lon="6.73204">
        <ele>1763.98</ele>
        <time>2014-02-24T14:45:24Z</time>
      </trkpt>
      <trkpt lat="44.85143" lon="6.73191">
        <ele>1760.01</ele>
        <time>2014-02-24T14:45:27Z</time>
      </trkpt>
      <trkpt lat="44.85163" lon="6.73173">
        <ele>1757.89</ele>
        <time>2014-02-24T14:45:30Z</time>
      </trkpt>
      <trkpt lat="44.85183" lon="6.7315">
        <ele>1757</ele>
        <time>2014-02-24T14:45:33Z</time>
      </trkpt>
      <trkpt lat="44.85198" lon="6.73132">
        <ele>1755.14</ele>
        <time>2014-02-24T14:45:36Z</time>
      </trkpt>
      <trkpt lat="44.85215" lon="6.73108">
        <ele>1755.41</ele>
        <time>2014-02-24T14:45:39Z</time>
      </trkpt>
      <trkpt lat="44.85228" lon="6.7309">
        <ele>1755.57</ele>
        <time>2014-02-24T14:45:42Z</time>
      </trkpt>
      <trkpt lat="44.85243" lon="6.7307">
        <ele>1755.46</ele>
        <time>2014-02-24T14:45:45Z</time>
      </trkpt>
      <trkpt lat="44.8526" lon="6.73049">
        <ele>1755.51</ele>
        <time>2014-02-24T14:45:49Z</time>
      </trkpt>
      <trkpt lat="44.85277" lon="6.73027">
        <ele>1754.57</ele>
        <time>2014-02-24T14:45:53Z</time>
      </trkpt>
      <trkpt lat="44.8529" lon="6.73005">
        <ele>1753.02</ele>
        <time>2014-02-24T14:45:57Z</time>
      </trkpt>
      <trkpt lat="44.85302" lon="6.72985">
        <ele>1752.48</ele>
        <time>2014-02-24T14:46:01Z</time>
      </trkpt>
      <trkpt lat="44.85316" lon="6.72963">
        <ele>1750.88</ele>
        <time>2014-02-24T14:46:06Z</time>
      </trkpt>
      <trkpt lat="44.8533" lon="6.72942">
        <ele>1748.65</ele>
        <time>2014-02-24T14:46:11Z</time>
      </trkpt>
      <trkpt lat="44.85345" lon="6.72923">
        <ele>1747.01</ele>
        <time>2014-02-24T14:46:17Z</time>
      </trkpt>
      <trkpt lat="44.85361" lon="6.72905">
        <ele>1746.39</ele>
        <time>2014-02-24T14:46:23Z</time>
      </trkpt>
      <trkpt lat="44.85375" lon="6.72889">
        <ele>1746.26</ele>
        <time>2014-02-24T14:46:28Z</time>
      </trkpt>
      <trkpt lat="44.85391" lon="6.72872">
        <ele>1745.22</ele>
        <time>2014-02-24T14:46:34Z</time>
      </trkpt>
      <trkpt lat="44.85406" lon="6.72855">
        <ele>1742.32</ele>
        <time>2014-02-24T14:46:40Z</time>
      </trkpt>
      <trkpt lat="44.85421" lon="6.72838">
        <ele>1739.63</ele>
        <time>2014-02-24T14:46:46Z</time>
      </trkpt>
      <trkpt lat="44.85435" lon="6.7282">
        <ele>1740.74</ele>
        <time>2014-02-24T14:46:52Z</time>
      </trkpt>
      <trkpt lat="44.85451" lon="6.72807">
        <ele>1739.61</ele>
        <time>2014-02-24T14:46:58Z</time>
      </trkpt>
      <trkpt lat="44.85466" lon="6.72791">
        <ele>1738.1</ele>
        <time>2014-02-24T14:47:05Z</time>
      </trkpt>
      <trkpt lat="44.8548" lon="6.72774">
        <ele>1733.58</ele>
        <time>2014-02-24T14:47:13Z</time>
      </trkpt>
      <trkpt lat="44.85495" lon="6.7276">
        <ele>1731.47</ele>
        <time>2014-02-24T14:47:20Z</time>
      </trkpt>
      <trkpt lat="44.85511" lon="6.72746">
        <ele>1730.92</ele>
        <time>2014-02-24T14:47:28Z</time>
      </trkpt>
      <trkpt lat="44.85526" lon="6.72727">
        <ele>1738.1</ele>
        <time>2014-02-24T14:47:44Z</time>
      </trkpt>
      <trkpt lat="44.85543" lon="6.72717">
        <ele>1737.49</ele>
        <time>2014-02-24T14:48:54Z</time>
      </trkpt>
    </trkseg>
  </trk>
</gpx>